Observation data for Big Lake on 01/12/2018      Previous  Date  Next       Current Mesonet Observations  Soil Data  Daily Summary Page  Observations in Plain Language
KBI1 120600Z 07001KT 02/M10 A303 RMK A01 T00151104  RH  041%=      5-min Rain = 0
KBI1 120601Z 07001KT 01/M10 A303 RMK A01 T00141104  RH  041%=      5-min Rain = 0
KBI1 120602Z 07000KT 01/M10 A303 RMK A01 T00121104  RH  042%=      5-min Rain = 0
KBI1 120603Z 07000KT 01/M10 A303 RMK A01 T00101104  RH  042%=      5-min Rain = 0
KBI1 120604Z 07000KT 01/M10 A303 RMK A01 T00091101  RH  044%=      5-min Rain = 0
KBI1 120605Z 06000KT 01/M10 A303 RMK A01 T00081100  RH  044%=      5-min Rain = 0
KBI1 120606Z 07000KT 01/M10 A303 RMK A01 T00061100  RH  045%=      5-min Rain = 0
KBI1 120607Z 06000KT 00/M10 A303 RMK A01 T00041099  RH  046%=      5-min Rain = 0
KBI1 120608Z 06000KT 00/M10 A303 RMK A01 T00031097  RH  047%=      5-min Rain = 0
KBI1 120609Z 06000KT 00/M10 A303 RMK A01 T00021097  RH  047%=      5-min Rain = 0
KBI1 120610Z 00000KT 00/10 A303 RMK A01 T00-00-96  RH  048%=      5-min Rain = 0
KBI1 120611Z 00000KT M00/M10 A303 RMK A01 T10021096  RH  049%=      5-min Rain = 0
KBI1 120612Z 00000KT M00/M10 A303 RMK A01 T10041097  RH  050%=      5-min Rain = 0
KBI1 120613Z 06000KT M01/M10 A303 RMK A01 T10061097  RH  050%=      5-min Rain = 0
KBI1 120614Z 00000KT M01/M10 A303 RMK A01 T10071097  RH  051%=      5-min Rain = 0
KBI1 120615Z 00000KT M01/M10 A303 RMK A01 T10081097  RH  051%=      5-min Rain = 0
KBI1 120616Z 06000KT M01/M10 A303 RMK A01 T10101098  RH  051%=      5-min Rain = 0
KBI1 120617Z 06001KT M01/M10 A303 RMK A01 T10121098  RH  052%=      5-min Rain = 0
KBI1 120618Z 06001KT M01/M10 A303 RMK A01 T10121097  RH  053%=      5-min Rain = 0
KBI1 120619Z 06002KT M01/M10 A303 RMK A01 T10131097  RH  053%=      5-min Rain = 0
KBI1 120620Z 06002KT M01/M10 A303 RMK A01 T10141098  RH  053%=      5-min Rain = 0
KBI1 120621Z 06002KT M02/M10 A303 RMK A01 T10161098  RH  054%=      5-min Rain = 0
KBI1 120622Z 07002KT M02/M10 A303 RMK A01 T10171097  RH  054%=      5-min Rain = 0
KBI1 120623Z 09001KT M02/M10 A303 RMK A01 T10161095  RH  055%=      5-min Rain = 0
KBI1 120624Z 18001KT M01/M09 A303 RMK A01 T10141093  RH  055%=      5-min Rain = 0
KBI1 120625Z 18001KT M01/M09 A303 RMK A01 T10141094  RH  055%=      5-min Rain = 0
KBI1 120626Z 18001KT M01/M09 A303 RMK A01 T10131093  RH  054%=      5-min Rain = 0
KBI1 120627Z 18001KT M01/M09 A303 RMK A01 T10101092  RH  053%=      5-min Rain = 0
KBI1 120628Z 18001KT M01/M09 A303 RMK A01 T10091093  RH  053%=      5-min Rain = 0
KBI1 120629Z 18000KT M01/M09 A303 RMK A01 T10091094  RH  053%=      5-min Rain = 0
KBI1 120630Z 18000KT M01/M09 A303 RMK A01 T10101094  RH  053%=      5-min Rain = 0
KBI1 120631Z 18000KT M01/M09 A303 RMK A01 T10111094  RH  053%=      5-min Rain = 0
KBI1 120632Z 00000KT M01/M10 A303 RMK A01 T10131095  RH  054%=      5-min Rain = 0
KBI1 120633Z 00000KT M02/M10 A303 RMK A01 T10151095  RH  055%=      5-min Rain = 0
KBI1 120634Z 00000KT M02/M09 A303 RMK A01 T10151093  RH  055%=      5-min Rain = 0
KBI1 120635Z 00000KT M02/M09 A303 RMK A01 T10151093  RH  055%=      5-min Rain = 0
KBI1 120636Z 00000KT M02/M09 A303 RMK A01 T10151094  RH  055%=      5-min Rain = 0
KBI1 120637Z 00000KT M02/M09 A303 RMK A01 T10161094  RH  055%=      5-min Rain = 0
KBI1 120638Z 00000KT M02/M09 A303 RMK A01 T10151093  RH  055%=      5-min Rain = 0
KBI1 120639Z 00000KT M02/M09 A303 RMK A01 T10161093  RH  055%=      5-min Rain = 0
KBI1 120640Z 19000KT M02/M09 A303 RMK A01 T10161093  RH  056%=      5-min Rain = 0
KBI1 120641Z 00000KT M02/M09 A303 RMK A01 T10171094  RH  056%=      5-min Rain = 0
KBI1 120642Z 18000KT M02/M09 A303 RMK A01 T10171094  RH  056%=      5-min Rain = 0
KBI1 120643Z 00000KT M02/M10 A303 RMK A01 T10151095  RH  055%=      5-min Rain = 0
KBI1 120644Z 00000KT M01/M10 A303 RMK A01 T10141095  RH  054%=      5-min Rain = 0
KBI1 120645Z 00000KT M02/M10 A303 RMK A01 T10151096  RH  054%=      5-min Rain = 0
KBI1 120646Z 00000KT M02/M10 A303 RMK A01 T10161096  RH  054%=      5-min Rain = 0
KBI1 120647Z 00000KT M02/M10 A303 RMK A01 T10171097  RH  054%=      5-min Rain = 0
KBI1 120648Z 00000KT M02/M10 A303 RMK A01 T10171097  RH  055%=      5-min Rain = 0
KBI1 120649Z 00000KT M02/M10 A303 RMK A01 T10181097  RH  055%=      5-min Rain = 0
KBI1 120650Z 00000KT M02/M10 A303 RMK A01 T10181097  RH  055%=      5-min Rain = 0
KBI1 120651Z 00000KT M02/M10 A303 RMK A01 T10171096  RH  055%=      5-min Rain = 0
KBI1 120652Z 00000KT M02/M10 A303 RMK A01 T10171096  RH  055%=      5-min Rain = 0
KBI1 120653Z 00000KT M02/M10 A303 RMK A01 T10171097  RH  055%=      5-min Rain = 0
KBI1 120654Z 19000KT M02/M10 A303 RMK A01 T10171097  RH  055%=      5-min Rain = 0
KBI1 120655Z 19000KT M02/M10 A303 RMK A01 T10171097  RH  055%=      5-min Rain = 0
KBI1 120656Z 19000KT M02/M10 A303 RMK A01 T10171096  RH  055%=      5-min Rain = 0
KBI1 120657Z 19000KT M02/M10 A303 RMK A01 T10161096  RH  054%=      5-min Rain = 0
KBI1 120658Z 19001KT M02/M10 A303 RMK A01 T10151096  RH  054%=      5-min Rain = 0
KBI1 120659Z 19001KT M02/M10 A303 RMK A01 T10151096  RH  054%=      5-min Rain = 0
KBI1 120700Z 19001KT M01/M10 A303 RMK A01 T10141096  RH  054%=      5-min Rain = 0
KBI1 120701Z 19001KT M01/M10 A303 RMK A01 T10141096  RH  054%=      5-min Rain = 0
KBI1 120702Z 19000KT M01/M10 A303 RMK A01 T10141096  RH  054%=      5-min Rain = 0
KBI1 120703Z 19001KT M01/M10 A303 RMK A01 T10141096  RH  054%=      5-min Rain = 0
KBI1 120704Z 19001KT M01/M10 A303 RMK A01 T10141096  RH  054%=      5-min Rain = 0
KBI1 120705Z 19001KT M02/M10 A303 RMK A01 T10151096  RH  054%=      5-min Rain = 0
KBI1 120706Z 19001KT M02/M10 A303 RMK A01 T10161096  RH  054%=      5-min Rain = 0
KBI1 120707Z 19001KT M02/M10 A303 RMK A01 T10161097  RH  054%=      5-min Rain = 0
KBI1 120708Z 19001KT M02/M10 A3029 RMK A01 T10161098  RH  054%=      5-min Rain = 0
KBI1 120709Z 19001KT M02/M10 A3029 RMK A01 T10171098  RH  054%=      5-min Rain = 0
KBI1 120710Z 19001KT M02/M10 A3029 RMK A01 T10171099  RH  054%=      5-min Rain = 0
KBI1 120711Z 19001KT M02/M10 A3029 RMK A01 T10171099  RH  054%=      5-min Rain = 0
KBI1 120712Z 19001KT M02/M10 A3029 RMK A01 T10191100  RH  054%=      5-min Rain = 0
KBI1 120713Z 19001KT M02/M10 A3029 RMK A01 T10191101  RH  053%=      5-min Rain = 0
KBI1 120714Z 19002KT M02/M10 A3029 RMK A01 T10191102  RH  053%=      5-min Rain = 0
KBI1 120715Z 19001KT M02/M10 A3029 RMK A01 T10191102  RH  053%=      5-min Rain = 0
KBI1 120716Z 19001KT M02/M10 A3029 RMK A01 T10191103  RH  053%=      5-min Rain = 0
KBI1 120717Z 19001KT M02/M10 A3029 RMK A01 T10191102  RH  053%=      5-min Rain = 0
KBI1 120718Z 19001KT M02/M10 A3029 RMK A01 T10191102  RH  053%=      5-min Rain = 0
KBI1 120719Z 19001KT M02/M10 A3029 RMK A01 T10191103  RH  053%=      5-min Rain = 0
KBI1 120720Z 19001KT M02/M10 A3029 RMK A01 T10191103  RH  053%=      5-min Rain = 0
KBI1 120721Z 19002KT M02/M10 A3029 RMK A01 T10191104  RH  052%=      5-min Rain = 0
KBI1 120722Z 19002KT M02/M10 A3028 RMK A01 T10181104  RH  052%=      5-min Rain = 0
KBI1 120723Z 19002KT M02/M10 A3028 RMK A01 T10171104  RH  052%=      5-min Rain = 0
KBI1 120724Z 19002KT M02/M10 A3028 RMK A01 T10161104  RH  051%=      5-min Rain = 0
KBI1 120725Z 19002KT M02/M11 A3029 RMK A01 T10151105  RH  051%=      5-min Rain = 0
KBI1 120726Z 19002KT M02/M11 A3029 RMK A01 T10151105  RH  050%=      5-min Rain = 0
KBI1 120727Z 19002KT M02/M10 A3029 RMK A01 T10151104  RH  051%=      5-min Rain = 0
KBI1 120728Z 19002KT M02/M10 A3029 RMK A01 T10161104  RH  051%=      5-min Rain = 0
KBI1 120729Z 19002KT M02/M10 A3029 RMK A01 T10161104  RH  051%=      5-min Rain = 0
KBI1 120730Z 19002KT M02/M10 A3029 RMK A01 T10171104  RH  051%=      5-min Rain = 0
KBI1 120731Z 19002KT M02/M10 A3029 RMK A01 T10171104  RH  052%=      5-min Rain = 0
KBI1 120732Z 19002KT M02/M11 A3029 RMK A01 T10181105  RH  052%=      5-min Rain = 0
KBI1 120733Z 18002KT M02/M11 A3029 RMK A01 T10181105  RH  052%=      5-min Rain = 0
KBI1 120734Z 19002KT M02/M11 A3029 RMK A01 T10181106  RH  051%=      5-min Rain = 0
KBI1 120735Z 19001KT M02/M11 A3029 RMK A01 T10181107  RH  051%=      5-min Rain = 0
KBI1 120736Z 18001KT M02/M11 A3029 RMK A01 T10181106  RH  051%=      5-min Rain = 0
KBI1 120737Z 18001KT M02/M11 A3028 RMK A01 T10181105  RH  051%=      5-min Rain = 0
KBI1 120738Z 18001KT M02/M11 A3028 RMK A01 T10171105  RH  051%=      5-min Rain = 0
KBI1 120739Z 18001KT M02/M10 A3028 RMK A01 T10161104  RH  051%=      5-min Rain = 0
KBI1 120740Z 18000KT M01/M10 A3028 RMK A01 T10141103  RH  050%=      5-min Rain = 0
KBI1 120741Z 18000KT M01/M10 A3028 RMK A01 T10121103  RH  050%=      5-min Rain = 0
KBI1 120742Z 18000KT M01/M10 A3028 RMK A01 T10101104  RH  049%=      5-min Rain = 0
KBI1 120743Z 00000KT M01/M10 A3028 RMK A01 T10081103  RH  048%=      5-min Rain = 0
KBI1 120744Z 00000KT M01/M10 A3028 RMK A01 T10071103  RH  048%=      5-min Rain = 0
KBI1 120745Z 00000KT M01/M10 A3028 RMK A01 T10081102  RH  049%=      5-min Rain = 0
KBI1 120746Z 00000KT M01/M10 A3028 RMK A01 T10081102  RH  049%=      5-min Rain = 0
KBI1 120747Z 00000KT M01/M10 A3028 RMK A01 T10061099  RH  050%=      5-min Rain = 0
KBI1 120748Z 00000KT M01/M10 A3028 RMK A01 T10061096  RH  050%=      5-min Rain = 0
KBI1 120749Z 00000KT M01/M10 A3028 RMK A01 T10061096  RH  051%=      5-min Rain = 0
KBI1 120750Z 00000KT M01/M10 A3028 RMK A01 T10061095  RH  051%=      5-min Rain = 0
KBI1 120751Z 00000KT M01/M10 A3029 RMK A01 T10061096  RH  051%=      5-min Rain = 0
KBI1 120752Z 00000KT M01/M10 A3029 RMK A01 T10061096  RH  051%=      5-min Rain = 0
KBI1 120753Z 00000KT M01/M10 A3029 RMK A01 T10071095  RH  051%=      5-min Rain = 0
KBI1 120754Z 19000KT M01/M10 A3028 RMK A01 T10071095  RH  051%=      5-min Rain = 0
KBI1 120755Z 18000KT M01/M10 A3028 RMK A01 T10091096  RH  051%=      5-min Rain = 0
KBI1 120756Z 18000KT M01/M10 A3028 RMK A01 T10091096  RH  052%=      5-min Rain = 0
KBI1 120757Z 18000KT M01/M10 A3028 RMK A01 T10091096  RH  052%=      5-min Rain = 0
KBI1 120758Z 18000KT M01/M10 A3028 RMK A01 T10101096  RH  052%=      5-min Rain = 0
KBI1 120759Z 18000KT M01/M10 A3029 RMK A01 T10101097  RH  051%=      5-min Rain = 0
KBI1 120800Z 18000KT M01/M10 A3029 RMK A01 T10101097  RH  052%=      5-min Rain = 0
KBI1 120801Z 00000KT M01/M10 A3029 RMK A01 T10111096  RH  052%=      5-min Rain = 0
KBI1 120802Z 00000KT M01/M10 A3029 RMK A01 T10121095  RH  053%=      5-min Rain = 0
KBI1 120803Z 00000KT M01/M10 A3029 RMK A01 T10121095  RH  053%=      5-min Rain = 0
KBI1 120804Z 00000KT M01/M10 A3029 RMK A01 T10131096  RH  053%=      5-min Rain = 0
KBI1 120805Z 00000KT M01/M10 A3029 RMK A01 T10141099  RH  052%=      5-min Rain = 0
KBI1 120806Z 00000KT M01/M10 A3029 RMK A01 T10141100  RH  052%=      5-min Rain = 0
KBI1 120807Z 19000KT M01/M10 A3029 RMK A01 T10141102  RH  051%=      5-min Rain = 0
KBI1 120808Z 19000KT M01/M10 A3029 RMK A01 T10141102  RH  051%=      5-min Rain = 0
KBI1 120809Z 19001KT M01/M10 A3029 RMK A01 T10141100  RH  052%=      5-min Rain = 0
KBI1 120810Z 19001KT M01/M10 A3029 RMK A01 T10131099  RH  052%=      5-min Rain = 0
KBI1 120811Z 19000KT M01/M10 A3029 RMK A01 T10131099  RH  052%=      5-min Rain = 0
KBI1 120812Z 19000KT M01/M10 A3029 RMK A01 T10131099  RH  052%=      5-min Rain = 0
KBI1 120813Z 00000KT M01/M10 A3029 RMK A01 T10141100  RH  052%=      5-min Rain = 0
KBI1 120814Z 00000KT M02/M10 A3029 RMK A01 T10151099  RH  053%=      5-min Rain = 0
KBI1 120815Z 00000KT M02/M10 A3029 RMK A01 T10161100  RH  053%=      5-min Rain = 0
KBI1 120816Z 00000KT M02/M10 A3029 RMK A01 T10171100  RH  053%=      5-min Rain = 0
KBI1 120817Z 00000KT M02/M10 A3029 RMK A01 T10181101  RH  053%=      5-min Rain = 0
KBI1 120818Z 00000KT M02/M10 A3029 RMK A01 T10191102  RH  053%=      5-min Rain = 0
KBI1 120819Z 00000KT M02/M10 A3029 RMK A01 T10201102  RH  054%=      5-min Rain = 0
KBI1 120820Z 00000KT M02/M10 A3029 RMK A01 T10211102  RH  054%=      5-min Rain = 0
KBI1 120821Z 00000KT M02/M10 A3029 RMK A01 T10211101  RH  054%=      5-min Rain = 0
KBI1 120822Z 00000KT M02/M10 A3029 RMK A01 T10221101  RH  055%=      5-min Rain = 0
KBI1 120823Z 00000KT M02/M10 A3029 RMK A01 T10231102  RH  055%=      5-min Rain = 0
KBI1 120824Z 00000KT M02/M10 A3029 RMK A01 T10241103  RH  055%=      5-min Rain = 0
KBI1 120825Z 00000KT M02/M10 A3029 RMK A01 T10241103  RH  055%=      5-min Rain = 0
KBI1 120826Z 00000KT M03/M10 A3029 RMK A01 T10251103  RH  055%=      5-min Rain = 0
KBI1 120827Z 00000KT M03/M10 A3029 RMK A01 T10251102  RH  055%=      5-min Rain = 0
KBI1 120828Z 00000KT M02/M10 A3029 RMK A01 T10241102  RH  055%=      5-min Rain = 0
KBI1 120829Z 00000KT M03/M10 A3029 RMK A01 T10251103  RH  055%=      5-min Rain = 0
KBI1 120830Z 00000KT M03/M10 A3028 RMK A01 T10251104  RH  055%=      5-min Rain = 0
KBI1 120831Z 00000KT M03/M10 A3028 RMK A01 T10251104  RH  054%=      5-min Rain = 0
KBI1 120832Z 00000KT M02/M11 A3028 RMK A01 T10241105  RH  054%=      5-min Rain = 0
KBI1 120833Z 00000KT M02/M11 A3028 RMK A01 T10231105  RH  054%=      5-min Rain = 0
KBI1 120834Z 00000KT M02/M11 A3028 RMK A01 T10231105  RH  053%=      5-min Rain = 0
KBI1 120835Z 00000KT M02/M11 A3028 RMK A01 T10231105  RH  053%=      5-min Rain = 0
KBI1 120836Z 00000KT M02/M11 A3028 RMK A01 T10221105  RH  053%=      5-min Rain = 0
KBI1 120837Z 00000KT M02/M11 A3028 RMK A01 T10221105  RH  053%=      5-min Rain = 0
KBI1 120838Z 00000KT M02/M10 A3028 RMK A01 T10221104  RH  053%=      5-min Rain = 0
KBI1 120839Z 00000KT M02/M10 A3028 RMK A01 T10221103  RH  054%=      5-min Rain = 0
KBI1 120840Z 00000KT M02/M10 A3028 RMK A01 T10221099  RH  055%=      5-min Rain = 0
KBI1 120841Z 00000KT M02/M10 A3028 RMK A01 T10201097  RH  056%=      5-min Rain = 0
KBI1 120842Z 18001KT M02/M10 A3028 RMK A01 T10191096  RH  056%=      5-min Rain = 0
KBI1 120843Z 18001KT M02/M10 A3028 RMK A01 T10171095  RH  055%=      5-min Rain = 0
KBI1 120844Z 18001KT M02/M09 A3028 RMK A01 T10161093  RH  056%=      5-min Rain = 0
KBI1 120845Z 18001KT M01/M09 A3028 RMK A01 T10141090  RH  056%=      5-min Rain = 0
KBI1 120846Z 18001KT M01/M09 A3028 RMK A01 T10121088  RH  056%=      5-min Rain = 0
KBI1 120847Z 19001KT M01/M09 A3028 RMK A01 T10121087  RH  057%=      5-min Rain = 0
KBI1 120848Z 19001KT M01/M09 A3028 RMK A01 T10121086  RH  057%=      5-min Rain = 0
KBI1 120849Z 19001KT M01/M09 A3029 RMK A01 T10121088  RH  056%=      5-min Rain = 0
KBI1 120850Z 19001KT M01/M09 A3029 RMK A01 T10121088  RH  056%=      5-min Rain = 0
KBI1 120851Z 19001KT M01/M09 A3029 RMK A01 T10121090  RH  055%=      5-min Rain = 0
KBI1 120852Z 19001KT M01/M09 A3029 RMK A01 T10131092  RH  055%=      5-min Rain = 0
KBI1 120853Z 22003KT M01/M09 A3029 RMK A01 T10131093  RH  055%=      5-min Rain = 0
KBI1 120854Z 24003KT M01/M10 A3029 RMK A01 T10141096  RH  054%=      5-min Rain = 0
KBI1 120855Z 24003KT M02/M10 A3029 RMK A01 T10171097  RH  054%=      5-min Rain = 0
KBI1 120856Z 25004KT M02/M10 A3029 RMK A01 T10191097  RH  055%=      5-min Rain = 0
KBI1 120857Z 25004KT M02/M10 A3029 RMK A01 T10191097  RH  055%=      5-min Rain = 0
KBI1 120858Z 25003KT M02/M10 A3029 RMK A01 T10211099  RH  055%=      5-min Rain = 0
KBI1 120859Z 25003KT M02/M10 A3029 RMK A01 T10231099  RH  056%=      5-min Rain = 0
KBI1 120900Z 25002KT M03/M10 A3029 RMK A01 T10251100  RH  056%=      5-min Rain = 0
KBI1 120901Z 25002KT M03/M10 A3029 RMK A01 T10261100  RH  057%=      5-min Rain = 0
KBI1 120902Z 25002KT M03/M10 A3029 RMK A01 T10261099  RH  057%=      5-min Rain = 0
KBI1 120903Z 25001KT M03/M10 A3029 RMK A01 T10261099  RH  057%=      5-min Rain = 0
KBI1 120904Z 25002KT M03/M10 A3029 RMK A01 T10261098  RH  057%=      5-min Rain = 0
KBI1 120905Z 25002KT M03/M10 A3029 RMK A01 T10261098  RH  058%=      5-min Rain = 0
KBI1 120906Z 25002KT M03/M10 A3029 RMK A01 T10261098  RH  058%=      5-min Rain = 0
KBI1 120907Z 25002KT M03/M10 A3029 RMK A01 T10271099  RH  058%=      5-min Rain = 0
KBI1 120908Z 25002KT M03/M10 A3029 RMK A01 T10281099  RH  058%=      5-min Rain = 0
KBI1 120909Z 25001KT M03/M10 A3029 RMK A01 T10291100  RH  058%=      5-min Rain = 0
KBI1 120910Z 25001KT M03/M10 A3029 RMK A01 T10301100  RH  058%=      5-min Rain = 0
KBI1 120911Z 25002KT M03/M10 A3029 RMK A01 T10301100  RH  059%=      5-min Rain = 0
KBI1 120912Z 25002KT M03/M10 A3029 RMK A01 T10301100  RH  059%=      5-min Rain = 0
KBI1 120913Z 25003KT M03/M10 A3029 RMK A01 T10291099  RH  058%=      5-min Rain = 0
KBI1 120914Z 25002KT M03/M10 A3029 RMK A01 T10281100  RH  058%=      5-min Rain = 0
KBI1 120915Z 25002KT M03/M10 A3029 RMK A01 T10281100  RH  057%=      5-min Rain = 0
KBI1 120916Z 25002KT M03/M10 A3029 RMK A01 T10271100  RH  057%=      5-min Rain = 0
KBI1 120917Z 25003KT M03/M10 A3029 RMK A01 T10281100  RH  057%=      5-min Rain = 0
KBI1 120918Z 25002KT M03/M10 A3029 RMK A01 T10281100  RH  057%=      5-min Rain = 0
KBI1 120919Z 25003KT M03/M10 A3029 RMK A01 T10281100  RH  058%=      5-min Rain = 0
KBI1 120920Z 25003KT M03/M10 A3029 RMK A01 T10281100  RH  058%=      5-min Rain = 0
KBI1 120921Z 26002KT M03/M10 A3029 RMK A01 T10291101  RH  058%=      5-min Rain = 0
KBI1 120922Z 26003KT M03/M10 A3029 RMK A01 T10291101  RH  058%=      5-min Rain = 0
KBI1 120923Z 26003KT M03/M10 A3029 RMK A01 T10291101  RH  058%=      5-min Rain = 0
KBI1 120924Z 26002KT M03/M10 A3029 RMK A01 T10301101  RH  058%=      5-min Rain = 0
KBI1 120925Z 26003KT M03/M10 A3029 RMK A01 T10311100  RH  059%=      5-min Rain = 0
KBI1 120926Z 26002KT M03/M10 A3029 RMK A01 T10311099  RH  060%=      5-min Rain = 0
KBI1 120927Z 26003KT M03/M10 A3029 RMK A01 T10321099  RH  060%=      5-min Rain = 0
KBI1 120928Z 26002KT M03/M10 A3029 RMK A01 T10311099  RH  060%=      5-min Rain = 0
KBI1 120929Z 26002KT M03/M10 A3029 RMK A01 T10311099  RH  060%=      5-min Rain = 0
KBI1 120930Z 26003KT M03/M10 A3029 RMK A01 T10311099  RH  060%=      5-min Rain = 0
KBI1 120931Z 26003KT M03/M10 A3029 RMK A01 T10311099  RH  060%=      5-min Rain = 0
KBI1 120932Z 26002KT M03/M10 A3029 RMK A01 T10311099  RH  059%=      5-min Rain = 0
KBI1 120933Z 26002KT M03/M10 A3029 RMK A01 T10311100  RH  059%=      5-min Rain = 0
KBI1 120934Z 26002KT M03/M10 A3029 RMK A01 T10311099  RH  059%=      5-min Rain = 0
KBI1 120935Z 26002KT M03/M10 A3029 RMK A01 T10311100  RH  059%=      5-min Rain = 0
KBI1 120936Z 26002KT M03/M10 A3029 RMK A01 T10301100  RH  058%=      5-min Rain = 0
KBI1 120937Z 26002KT M03/M10 A3029 RMK A01 T10301100  RH  058%=      5-min Rain = 0
KBI1 120938Z 26001KT M03/M10 A3029 RMK A01 T10291101  RH  058%=      5-min Rain = 0
KBI1 120939Z 26001KT M03/M10 A3029 RMK A01 T10291101  RH  058%=      5-min Rain = 0
KBI1 120940Z 26002KT M03/M10 A3029 RMK A01 T10291101  RH  058%=      5-min Rain = 0
KBI1 120941Z 26002KT M03/M10 A3029 RMK A01 T10291100  RH  058%=      5-min Rain = 0
KBI1 120942Z 26002KT M03/M10 A3029 RMK A01 T10291100  RH  058%=      5-min Rain = 0
KBI1 120943Z 25003KT M03/M10 A3029 RMK A01 T10291100  RH  058%=      5-min Rain = 0
KBI1 120944Z 25004KT M03/M10 A3029 RMK A01 T10291100  RH  058%=      5-min Rain = 0
KBI1 120945Z 25004KT M03/M10 A3029 RMK A01 T10281099  RH  058%=      5-min Rain = 0
KBI1 120946Z 25003KT M03/M10 A3029 RMK A01 T10261099  RH  057%=      5-min Rain = 0
KBI1 120947Z 25003KT M03/M10 A3029 RMK A01 T10261099  RH  057%=      5-min Rain = 0
KBI1 120948Z 25003KT M03/M10 A3029 RMK A01 T10271099  RH  057%=      5-min Rain = 0
KBI1 120949Z 25002KT M03/M10 A3029 RMK A01 T10271098  RH  058%=      5-min Rain = 0
KBI1 120950Z 25001KT M03/M10 A3028 RMK A01 T10271097  RH  058%=      5-min Rain = 0
KBI1 120951Z 25000KT M03/M10 A3029 RMK A01 T10271097  RH  058%=      5-min Rain = 0
KBI1 120952Z 24001KT M03/M10 A3029 RMK A01 T10271097  RH  058%=      5-min Rain = 0
KBI1 120953Z 24002KT M03/M10 A3029 RMK A01 T10271098  RH  058%=      5-min Rain = 0
KBI1 120954Z 24002KT M03/M10 A3029 RMK A01 T10271098  RH  058%=      5-min Rain = 0
KBI1 120955Z 24002KT M03/M10 A3029 RMK A01 T10271098  RH  058%=      5-min Rain = 0
KBI1 120956Z 25003KT M03/M10 A3029 RMK A01 T10261097  RH  058%=      5-min Rain = 0
KBI1 120957Z 25003KT M02/M10 A3029 RMK A01 T10241097  RH  057%=      5-min Rain = 0
KBI1 120958Z 25003KT M02/M10 A3029 RMK A01 T10221097  RH  057%=      5-min Rain = 0
KBI1 120959Z 25002KT M02/M10 A3029 RMK A01 T10221098  RH  056%=      5-min Rain = 0
KBI1 121000Z 25003KT M02/M10 A3029 RMK A01 T10221098  RH  056%=      5-min Rain = 0
KBI1 121001Z 25003KT M02/M10 A3029 RMK A01 T10231099  RH  056%=      5-min Rain = 0
KBI1 121002Z 24003KT M02/M10 A3029 RMK A01 T10231100  RH  056%=      5-min Rain = 0
KBI1 121003Z 24003KT M02/M10 A3029 RMK A01 T10241100  RH  056%=      5-min Rain = 0
KBI1 121004Z 24004KT M02/M10 A3029 RMK A01 T10241100  RH  056%=      5-min Rain = 0
KBI1 121005Z 25004KT M02/M10 A3029 RMK A01 T10241100  RH  056%=      5-min Rain = 0
KBI1 121006Z 25004KT M02/M10 A3029 RMK A01 T10241100  RH  056%=      5-min Rain = 0
KBI1 121007Z 25003KT M02/M10 A3029 RMK A01 T10241099  RH  056%=      5-min Rain = 0
KBI1 121008Z 25003KT M03/M10 A3029 RMK A01 T10251100  RH  056%=      5-min Rain = 0
KBI1 121009Z 24002KT M03/M10 A3029 RMK A01 T10261100  RH  057%=      5-min Rain = 0
KBI1 121010Z 24003KT M03/M10 A3029 RMK A01 T10251099  RH  057%=      5-min Rain = 0
KBI1 121011Z 24004KT M03/M10 A3029 RMK A01 T10251100  RH  057%=      5-min Rain = 0
KBI1 121012Z 24003KT M03/M10 A3029 RMK A01 T10251100  RH  056%=      5-min Rain = 0
KBI1 121013Z 24003KT M02/M10 A3029 RMK A01 T10241100  RH  056%=      5-min Rain = 0
KBI1 121014Z 24002KT M02/M10 A3029 RMK A01 T10241099  RH  056%=      5-min Rain = 0
KBI1 121015Z 24001KT M02/M10 A3029 RMK A01 T10241099  RH  056%=      5-min Rain = 0
KBI1 121016Z 24001KT M02/M10 A3028 RMK A01 T10241098  RH  057%=      5-min Rain = 0
KBI1 121017Z 24001KT M02/M10 A3028 RMK A01 T10241098  RH  057%=      5-min Rain = 0
KBI1 121018Z 24001KT M03/M10 A3028 RMK A01 T10251098  RH  057%=      5-min Rain = 0
KBI1 121019Z 24001KT M03/M10 A3028 RMK A01 T10271099  RH  057%=      5-min Rain = 0
KBI1 121020Z 24001KT M03/M10 A3028 RMK A01 T10271100  RH  058%=      5-min Rain = 0
KBI1 121021Z 24001KT M03/M10 A3029 RMK A01 T10281100  RH  058%=      5-min Rain = 0
KBI1 121022Z 24001KT M03/M10 A3028 RMK A01 T10291100  RH  058%=      5-min Rain = 0
KBI1 121023Z 24000KT M03/M10 A3028 RMK A01 T10291099  RH  059%=      5-min Rain = 0
KBI1 121024Z 00000KT M03/M10 A3028 RMK A01 T10301099  RH  059%=      5-min Rain = 0
KBI1 121025Z 00000KT M03/M10 A3028 RMK A01 T10301099  RH  059%=      5-min Rain = 0
KBI1 121026Z 00000KT M03/M10 A3028 RMK A01 T10291099  RH  058%=      5-min Rain = 0
KBI1 121027Z 24000KT M03/M10 A3028 RMK A01 T10281099  RH  058%=      5-min Rain = 0
KBI1 121028Z 24001KT M03/M10 A3028 RMK A01 T10271099  RH  058%=      5-min Rain = 0
KBI1 121029Z 24000KT M03/M10 A3029 RMK A01 T10261098  RH  058%=      5-min Rain = 0
KBI1 121030Z 24000KT M03/M10 A3029 RMK A01 T10261097  RH  058%=      5-min Rain = 0
KBI1 121031Z 24000KT M03/M10 A3028 RMK A01 T10251095  RH  059%=      5-min Rain = 0
KBI1 121032Z 24001KT M02/M10 A3028 RMK A01 T10241095  RH  058%=      5-min Rain = 0
KBI1 121033Z 24000KT M02/M10 A3028 RMK A01 T10241096  RH  058%=      5-min Rain = 0
KBI1 121034Z 24002KT M02/M10 A3028 RMK A01 T10241096  RH  058%=      5-min Rain = 0
KBI1 121035Z 24000KT M02/M10 A3028 RMK A01 T10241096  RH  058%=      5-min Rain = 0
KBI1 121036Z 24001KT M02/M10 A3028 RMK A01 T10231097  RH  057%=      5-min Rain = 0
KBI1 121037Z 24000KT M02/M10 A3028 RMK A01 T10231097  RH  057%=      5-min Rain = 0
KBI1 121038Z 24001KT M02/M10 A3028 RMK A01 T10231097  RH  057%=      5-min Rain = 0
KBI1 121039Z 07002KT M02/M10 A3028 RMK A01 T10231096  RH  057%=      5-min Rain = 0
KBI1 121040Z 08000KT M02/M10 A3028 RMK A01 T10231095  RH  058%=      5-min Rain = 0
KBI1 121041Z 08001KT M02/M09 A3028 RMK A01 T10231094  RH  058%=      5-min Rain = 0
KBI1 121042Z 08001KT M02/M09 A3028 RMK A01 T10241094  RH  058%=      5-min Rain = 0
KBI1 121043Z 08000KT M03/M10 A3028 RMK A01 T10251095  RH  059%=      5-min Rain = 0
KBI1 121044Z 00000KT M03/M10 A3028 RMK A01 T10261095  RH  059%=      5-min Rain = 0
KBI1 121045Z 08002KT M03/M10 A3028 RMK A01 T10271096  RH  059%=      5-min Rain = 0
KBI1 121046Z 08001KT M03/M10 A3028 RMK A01 T10291096  RH  060%=      5-min Rain = 0
KBI1 121047Z 08000KT M03/M10 A3028 RMK A01 T10291095  RH  060%=      5-min Rain = 0
KBI1 121048Z 08001KT M03/M10 A3028 RMK A01 T10291096  RH  060%=      5-min Rain = 0
KBI1 121049Z 09002KT M03/M10 A3028 RMK A01 T10291096  RH  060%=      5-min Rain = 0
KBI1 121050Z 09002KT M03/M10 A3028 RMK A01 T10291096  RH  060%=      5-min Rain = 0
KBI1 121051Z 10003KT M03/M10 A3028 RMK A01 T10301097  RH  060%=      5-min Rain = 0
KBI1 121052Z 09003KT M03/M10 A3028 RMK A01 T10301097  RH  060%=      5-min Rain = 0
KBI1 121053Z 10003KT M03/M10 A3028 RMK A01 T10301096  RH  060%=      5-min Rain = 0
KBI1 121054Z 10004KT M03/M10 A3028 RMK A01 T10301097  RH  060%=      5-min Rain = 0
KBI1 121055Z 11004KT M03/M10 A3028 RMK A01 T10301097  RH  060%=      5-min Rain = 0
KBI1 121056Z 11004KT M03/M10 A3028 RMK A01 T10311098  RH  060%=      5-min Rain = 0
KBI1 121057Z 11004KT M03/M10 A3028 RMK A01 T10311098  RH  060%=      5-min Rain = 0
KBI1 121058Z 11003KT M03/M10 A3028 RMK A01 T10311099  RH  059%=      5-min Rain = 0
KBI1 121059Z 11003KT M03/M10 A3028 RMK A01 T10301099  RH  059%=      5-min Rain = 0
KBI1 121100Z 11002KT M03/M10 A3029 RMK A01 T10301099  RH  059%=      5-min Rain = 0
KBI1 121101Z 11002KT M03/M10 A3029 RMK A01 T10301099  RH  059%=      5-min Rain = 0
KBI1 121102Z 11002KT M03/M10 A3029 RMK A01 T10301098  RH  059%=      5-min Rain = 0
KBI1 121103Z 11003KT M03/M10 A3029 RMK A01 T10301098  RH  059%=      5-min Rain = 0
KBI1 121104Z 11002KT M03/M10 A3029 RMK A01 T10311099  RH  059%=      5-min Rain = 0
KBI1 121105Z 11002KT M03/M10 A3029 RMK A01 T10321099  RH  060%=      5-min Rain = 0
KBI1 121106Z 11002KT M03/M10 A3029 RMK A01 T10321099  RH  060%=      5-min Rain = 0
KBI1 121107Z 11001KT M03/M10 A3029 RMK A01 T10331098  RH  060%=      5-min Rain = 0
KBI1 121108Z 11001KT M03/M10 A3029 RMK A01 T10331099  RH  061%=      5-min Rain = 0
KBI1 121109Z 11000KT M03/M10 A3029 RMK A01 T10341099  RH  061%=      5-min Rain = 0
KBI1 121110Z 00000KT M04/M10 A3029 RMK A01 T10351099  RH  061%=      5-min Rain = 0
KBI1 121111Z 11000KT M04/M10 A3029 RMK A01 T10361100  RH  061%=      5-min Rain = 0
KBI1 121112Z 11000KT M04/M10 A3029 RMK A01 T10361099  RH  062%=      5-min Rain = 0
KBI1 121113Z 00000KT M04/M10 A3029 RMK A01 T10361098  RH  062%=      5-min Rain = 0
KBI1 121114Z 11000KT M04/M10 A3029 RMK A01 T10361098  RH  062%=      5-min Rain = 0
KBI1 121115Z 11001KT M04/M10 A3029 RMK A01 T10361098  RH  062%=      5-min Rain = 0
KBI1 121116Z 11002KT M04/M10 A3029 RMK A01 T10371098  RH  063%=      5-min Rain = 0
KBI1 121117Z 11002KT M04/M10 A3029 RMK A01 T10361097  RH  063%=      5-min Rain = 0
KBI1 121118Z 11002KT M04/M10 A3029 RMK A01 T10361098  RH  062%=      5-min Rain = 0
KBI1 121119Z 11002KT M04/M10 A3028 RMK A01 T10361098  RH  062%=      5-min Rain = 0
KBI1 121120Z 10003KT M04/M10 A3028 RMK A01 T10361097  RH  062%=      5-min Rain = 0
KBI1 121121Z 09003KT M04/M10 A3028 RMK A01 T10361096  RH  063%=      5-min Rain = 0
KBI1 121122Z 09003KT M03/M10 A3028 RMK A01 T10341095  RH  063%=      5-min Rain = 0
KBI1 121123Z 09003KT M03/M10 A3028 RMK A01 T10331095  RH  062%=      5-min Rain = 0
KBI1 121124Z 09002KT M03/M09 A3028 RMK A01 T10321094  RH  062%=      5-min Rain = 0
KBI1 121125Z 09002KT M03/M10 A3028 RMK A01 T10321095  RH  062%=      5-min Rain = 0
KBI1 121126Z 09002KT M03/M10 A3028 RMK A01 T10311096  RH  061%=      5-min Rain = 0
KBI1 121127Z 09002KT M03/M10 A3028 RMK A01 T10321096  RH  061%=      5-min Rain = 0
KBI1 121128Z 09002KT M03/M10 A3028 RMK A01 T10321097  RH  061%=      5-min Rain = 0
KBI1 121129Z 09002KT M03/M10 A3028 RMK A01 T10331097  RH  061%=      5-min Rain = 0
KBI1 121130Z 09001KT M03/M10 A3028 RMK A01 T10341097  RH  061%=      5-min Rain = 0
KBI1 121131Z 09001KT M03/M10 A3028 RMK A01 T10341097  RH  062%=      5-min Rain = 0
KBI1 121132Z 09002KT M04/M10 A3028 RMK A01 T10351097  RH  062%=      5-min Rain = 0
KBI1 121133Z 07002KT M04/M10 A3028 RMK A01 T10351097  RH  062%=      5-min Rain = 0
KBI1 121134Z 07002KT M04/M10 A3028 RMK A01 T10361097  RH  062%=      5-min Rain = 0
KBI1 121135Z 07003KT M04/M10 A3028 RMK A01 T10361097  RH  063%=      5-min Rain = 0
KBI1 121136Z 08003KT M04/M10 A3028 RMK A01 T10371097  RH  063%=      5-min Rain = 0
KBI1 121137Z 08002KT M04/M10 A3028 RMK A01 T10371097  RH  063%=      5-min Rain = 0
KBI1 121138Z 08002KT M04/M10 A3028 RMK A01 T10371097  RH  063%=      5-min Rain = 0
KBI1 121139Z 08002KT M04/M10 A3028 RMK A01 T10371096  RH  063%=      5-min Rain = 0
KBI1 121140Z 10002KT M04/M10 A3028 RMK A01 T10361096  RH  063%=      5-min Rain = 0
KBI1 121141Z 11002KT M04/M10 A3027 RMK A01 T10351096  RH  063%=      5-min Rain = 0
KBI1 121142Z 12002KT M03/M10 A3027 RMK A01 T10341095  RH  063%=      5-min Rain = 0
KBI1 121143Z 12003KT M03/M09 A3027 RMK A01 T10321094  RH  063%=      5-min Rain = 0
KBI1 121144Z 12003KT M03/M09 A3027 RMK A01 T10321094  RH  062%=      5-min Rain = 0
KBI1 121145Z 11003KT M03/M09 A3027 RMK A01 T10301093  RH  062%=      5-min Rain = 0
KBI1 121146Z 11003KT M03/M09 A3027 RMK A01 T10281093  RH  061%=      5-min Rain = 0
KBI1 121147Z 11003KT M03/M09 A3027 RMK A01 T10261093  RH  060%=      5-min Rain = 0
KBI1 121148Z 12003KT M03/M09 A3026 RMK A01 T10261094  RH  060%=      5-min Rain = 0
KBI1 121149Z 12003KT M03/M09 A3026 RMK A01 T10261094  RH  059%=      5-min Rain = 0
KBI1 121150Z 12003KT M03/M09 A3026 RMK A01 T10261094  RH  060%=      5-min Rain = 0
KBI1 121151Z 12003KT M03/M09 A3026 RMK A01 T10261094  RH  060%=      5-min Rain = 0
KBI1 121152Z 12003KT M03/M10 A3026 RMK A01 T10271095  RH  059%=      5-min Rain = 0
KBI1 121153Z 12003KT M03/M10 A3026 RMK A01 T10261095  RH  059%=      5-min Rain = 0
KBI1 121154Z 12002KT M03/M10 A3026 RMK A01 T10261095  RH  059%=      5-min Rain = 0
KBI1 121155Z 12002KT M03/M10 A3026 RMK A01 T10271096  RH  059%=      5-min Rain = 0
KBI1 121156Z 12001KT M03/M10 A3026 RMK A01 T10291097  RH  060%=      5-min Rain = 0
KBI1 121157Z 12001KT M03/M10 A3026 RMK A01 T10321098  RH  061%=      5-min Rain = 0
KBI1 121158Z 12001KT M03/M10 A3026 RMK A01 T10341097  RH  061%=      5-min Rain = 0
KBI1 121159Z 12001KT M03/M10 A3026 RMK A01 T10341097  RH  062%=      5-min Rain = 0
KBI1 121200Z 12002KT M04/M10 A3027 RMK A01 T10351097  RH  062%=      5-min Rain = 0
KBI1 121201Z 12002KT M04/M10 A3027 RMK A01 T10361097  RH  063%=      5-min Rain = 0
KBI1 121202Z 12001KT M04/M10 A3027 RMK A01 T10371096  RH  063%=      5-min Rain = 0
KBI1 121203Z 13001KT M04/M10 A3027 RMK A01 T10371096  RH  063%=      5-min Rain = 0
KBI1 121204Z 13001KT M04/M10 A3026 RMK A01 T10361097  RH  063%=      5-min Rain = 0
KBI1 121205Z 13001KT M04/M10 A3027 RMK A01 T10361098  RH  062%=      5-min Rain = 0
KBI1 121206Z 13000KT M04/M10 A3027 RMK A01 T10371100  RH  062%=      5-min Rain = 0
KBI1 121207Z 13000KT M04/M10 A3027 RMK A01 T10381100  RH  062%=      5-min Rain = 0
KBI1 121208Z 13001KT M04/M10 A3027 RMK A01 T10391100  RH  062%=      5-min Rain = 0
KBI1 121209Z 13001KT M04/M10 A3027 RMK A01 T10381099  RH  063%=      5-min Rain = 0
KBI1 121210Z 13001KT M04/M10 A3027 RMK A01 T10381099  RH  062%=      5-min Rain = 0
KBI1 121211Z 13002KT M04/M10 A3027 RMK A01 T10381099  RH  062%=      5-min Rain = 0
KBI1 121212Z 13002KT M04/M10 A3027 RMK A01 T10381100  RH  062%=      5-min Rain = 0
KBI1 121213Z 13002KT M04/M10 A3027 RMK A01 T10381099  RH  062%=      5-min Rain = 0
KBI1 121214Z 13003KT M04/M10 A3027 RMK A01 T10381099  RH  063%=      5-min Rain = 0
KBI1 121215Z 13002KT M04/M10 A3027 RMK A01 T10381099  RH  063%=      5-min Rain = 0
KBI1 121216Z 13003KT M04/M10 A3027 RMK A01 T10371098  RH  062%=      5-min Rain = 0
KBI1 121217Z 13003KT M04/M10 A3027 RMK A01 T10361098  RH  062%=      5-min Rain = 0
KBI1 121218Z 13002KT M04/M10 A3027 RMK A01 T10351098  RH  062%=      5-min Rain = 0
KBI1 121219Z 13002KT M03/M10 A3027 RMK A01 T10341098  RH  061%=      5-min Rain = 0
KBI1 121220Z 13002KT M03/M10 A3027 RMK A01 T10331098  RH  061%=      5-min Rain = 0
KBI1 121221Z 13002KT M03/M10 A3027 RMK A01 T10321098  RH  060%=      5-min Rain = 0
KBI1 121222Z 13002KT M03/M10 A3027 RMK A01 T10321098  RH  060%=      5-min Rain = 0
KBI1 121223Z 13002KT M03/M10 A3027 RMK A01 T10321098  RH  060%=      5-min Rain = 0
KBI1 121224Z 13001KT M03/M10 A3027 RMK A01 T10321099  RH  060%=      5-min Rain = 0
KBI1 121225Z 13001KT M03/M10 A3027 RMK A01 T10331099  RH  060%=      5-min Rain = 0
KBI1 121226Z 13001KT M03/M10 A3027 RMK A01 T10341099  RH  061%=      5-min Rain = 0
KBI1 121227Z 13001KT M04/M10 A3027 RMK A01 T10351099  RH  061%=      5-min Rain = 0
KBI1 121228Z 13000KT M04/M10 A3027 RMK A01 T10371100  RH  061%=      5-min Rain = 0
KBI1 121229Z 13000KT M04/M10 A3027 RMK A01 T10401102  RH  062%=      5-min Rain = 0
KBI1 121230Z 13000KT M04/M10 A3027 RMK A01 T10401101  RH  062%=      5-min Rain = 0
KBI1 121231Z 13001KT M04/M10 A3027 RMK A01 T10411101  RH  063%=      5-min Rain = 0
KBI1 121232Z 13001KT M04/M10 A3027 RMK A01 T10401101  RH  063%=      5-min Rain = 0
KBI1 121233Z 13001KT M04/M10 A3027 RMK A01 T10411101  RH  063%=      5-min Rain = 0
KBI1 121234Z 13001KT M04/M10 A3027 RMK A01 T10421101  RH  063%=      5-min Rain = 0
KBI1 121235Z 13001KT M04/M10 A3027 RMK A01 T10421100  RH  064%=      5-min Rain = 0
KBI1 121236Z 13002KT M04/M10 A3027 RMK A01 T10431100  RH  064%=      5-min Rain = 0
KBI1 121237Z 13001KT M04/M10 A3027 RMK A01 T10431100  RH  065%=      5-min Rain = 0
KBI1 121238Z 13001KT M04/M10 A3027 RMK A01 T10431100  RH  065%=      5-min Rain = 0
KBI1 121239Z 13001KT M04/M10 A3027 RMK A01 T10421099  RH  065%=      5-min Rain = 0
KBI1 121240Z 13002KT M04/M10 A3027 RMK A01 T10411098  RH  064%=      5-min Rain = 0
KBI1 121241Z 13002KT M04/M10 A3027 RMK A01 T10401099  RH  064%=      5-min Rain = 0
KBI1 121242Z 13001KT M04/M10 A3027 RMK A01 T10391099  RH  063%=      5-min Rain = 0
KBI1 121243Z 13002KT M04/M10 A3027 RMK A01 T10381099  RH  063%=      5-min Rain = 0
KBI1 121244Z 13002KT M04/M10 A3027 RMK A01 T10381099  RH  063%=      5-min Rain = 0
KBI1 121245Z 13002KT M04/M10 A3027 RMK A01 T10401101  RH  063%=      5-min Rain = 0
KBI1 121246Z 13002KT M04/M10 A3027 RMK A01 T10411101  RH  063%=      5-min Rain = 0
KBI1 121247Z 13002KT M04/M10 A3027 RMK A01 T10411101  RH  063%=      5-min Rain = 0
KBI1 121248Z 13002KT M04/M10 A3027 RMK A01 T10401099  RH  063%=      5-min Rain = 0
KBI1 121249Z 13001KT M04/M10 A3027 RMK A01 T10381098  RH  063%=      5-min Rain = 0
KBI1 121250Z 13001KT M04/M10 A3027 RMK A01 T10381098  RH  063%=      5-min Rain = 0
KBI1 121251Z 13001KT M04/M10 A3027 RMK A01 T10381098  RH  063%=      5-min Rain = 0
KBI1 121252Z 13001KT M04/M10 A3027 RMK A01 T10381098  RH  063%=      5-min Rain = 0
KBI1 121253Z 13002KT M04/M10 A3027 RMK A01 T10381098  RH  063%=      5-min Rain = 0
KBI1 121254Z 13002KT M04/M10 A3028 RMK A01 T10401100  RH  063%=      5-min Rain = 0
KBI1 121255Z 16003KT M04/M10 A3028 RMK A01 T10411100  RH  063%=      5-min Rain = 0
KBI1 121256Z 16003KT M04/M10 A3028 RMK A01 T10411099  RH  064%=      5-min Rain = 0
KBI1 121257Z 16003KT M04/M10 A3028 RMK A01 T10401098  RH  064%=      5-min Rain = 0
KBI1 121258Z 16003KT M04/M10 A3028 RMK A01 T10401099  RH  063%=      5-min Rain = 0
KBI1 121259Z 16002KT M04/M10 A3027 RMK A01 T10391099  RH  063%=      5-min Rain = 0
KBI1 121300Z 15002KT M04/M10 A3027 RMK A01 T10391099  RH  063%=      5-min Rain = 0
KBI1 121301Z 15002KT M04/M10 A3027 RMK A01 T10391099  RH  063%=      5-min Rain = 0
KBI1 121302Z 15002KT M04/M10 A3027 RMK A01 T10391099  RH  063%=      5-min Rain = 0
KBI1 121303Z 15003KT M04/M10 A3027 RMK A01 T10381099  RH  063%=      5-min Rain = 0
KBI1 121304Z 15003KT M04/M10 A3027 RMK A01 T10391099  RH  063%=      5-min Rain = 0
KBI1 121305Z 14003KT M04/M10 A3027 RMK A01 T10391098  RH  063%=      5-min Rain = 0
KBI1 121306Z 14003KT M04/M10 A3027 RMK A01 T10391098  RH  064%=      5-min Rain = 0
KBI1 121307Z 14003KT M04/M10 A3027 RMK A01 T10391098  RH  064%=      5-min Rain = 0
KBI1 121308Z 14002KT M04/M10 A3028 RMK A01 T10391097  RH  064%=      5-min Rain = 0
KBI1 121309Z 14003KT M04/M10 A3028 RMK A01 T10391097  RH  064%=      5-min Rain = 0
KBI1 121310Z 14003KT M04/M10 A3028 RMK A01 T10391096  RH  065%=      5-min Rain = 0
KBI1 121311Z 15003KT M04/M10 A3028 RMK A01 T10391096  RH  065%=      5-min Rain = 0
KBI1 121312Z 14003KT M04/M10 A3028 RMK A01 T10391096  RH  064%=      5-min Rain = 0
KBI1 121313Z 14003KT M04/M10 A3028 RMK A01 T10381096  RH  064%=      5-min Rain = 0
KBI1 121314Z 14003KT M04/M10 A3028 RMK A01 T10371095  RH  064%=      5-min Rain = 0
KBI1 121315Z 13003KT M04/M10 A3028 RMK A01 T10361095  RH  064%=      5-min Rain = 0
KBI1 121316Z 13003KT M04/M10 A3028 RMK A01 T10361095  RH  063%=      5-min Rain = 0
KBI1 121317Z 14003KT M04/M10 A3028 RMK A01 T10351095  RH  063%=      5-min Rain = 0
KBI1 121318Z 14003KT M04/M10 A3028 RMK A01 T10351096  RH  063%=      5-min Rain = 0
KBI1 121319Z 13003KT M03/M10 A3028 RMK A01 T10341096  RH  062%=      5-min Rain = 0
KBI1 121320Z 13003KT M03/M10 A3028 RMK A01 T10341096  RH  062%=      5-min Rain = 0
KBI1 121321Z 13003KT M03/M10 A3028 RMK A01 T10331095  RH  062%=      5-min Rain = 0
KBI1 121322Z 12003KT M03/M10 A3028 RMK A01 T10331095  RH  062%=      5-min Rain = 0
KBI1 121323Z 12002KT M03/M10 A3028 RMK A01 T10331096  RH  062%=      5-min Rain = 0
KBI1 121324Z 12002KT M03/M10 A3028 RMK A01 T10331096  RH  062%=      5-min Rain = 0
KBI1 121325Z 12003KT M03/M10 A3028 RMK A01 T10331095  RH  062%=      5-min Rain = 0
KBI1 121326Z 12003KT M03/M09 A3028 RMK A01 T10321094  RH  062%=      5-min Rain = 0
KBI1 121327Z 12003KT M03/M09 A3028 RMK A01 T10311094  RH  062%=      5-min Rain = 0
KBI1 121328Z 12003KT M03/M09 A3028 RMK A01 T10301094  RH  061%=      5-min Rain = 0
KBI1 121329Z 12003KT M03/M09 A3028 RMK A01 T10301094  RH  061%=      5-min Rain = 0
KBI1 121330Z 13003KT M03/M09 A3028 RMK A01 T10311094  RH  061%=      5-min Rain = 0
KBI1 121331Z 12003KT M03/M10 A3028 RMK A01 T10311095  RH  061%=      5-min Rain = 0
KBI1 121332Z 13003KT M03/M10 A3028 RMK A01 T10301095  RH  061%=      5-min Rain = 0
KBI1 121333Z 12003KT M03/M10 A3028 RMK A01 T10301095  RH  061%=      5-min Rain = 0
KBI1 121334Z 12003KT M03/M10 A3028 RMK A01 T10301095  RH  061%=      5-min Rain = 0
KBI1 121335Z 12003KT M03/M10 A3028 RMK A01 T10301095  RH  061%=      5-min Rain = 0
KBI1 121336Z 12003KT M03/M10 A3028 RMK A01 T10301095  RH  061%=      5-min Rain = 0
KBI1 121337Z 12002KT M03/M10 A3028 RMK A01 T10291095  RH  060%=      5-min Rain = 0
KBI1 121338Z 13002KT M03/M10 A3028 RMK A01 T10301096  RH  060%=      5-min Rain = 0
KBI1 121339Z 13002KT M03/M10 A3028 RMK A01 T10301096  RH  060%=      5-min Rain = 0
KBI1 121340Z 13003KT M03/M10 A3028 RMK A01 T10301097  RH  060%=      5-min Rain = 0
KBI1 121341Z 13003KT M03/M10 A3028 RMK A01 T10291096  RH  060%=      5-min Rain = 0
KBI1 121342Z 13003KT M03/M10 A3028 RMK A01 T10291096  RH  060%=      5-min Rain = 0
KBI1 121343Z 13003KT M03/M10 A3028 RMK A01 T10291096  RH  060%=      5-min Rain = 0
KBI1 121344Z 13003KT M03/M10 A3028 RMK A01 T10291096  RH  060%=      5-min Rain = 0
KBI1 121345Z 12003KT M03/M10 A3028 RMK A01 T10291096  RH  060%=      5-min Rain = 0
KBI1 121346Z 12003KT M03/M10 A3028 RMK A01 T10301095  RH  061%=      5-min Rain = 0
KBI1 121347Z 12002KT M03/M10 A3028 RMK A01 T10311095  RH  061%=      5-min Rain = 0
KBI1 121348Z 11001KT M03/M10 A3028 RMK A01 T10311095  RH  061%=      5-min Rain = 0
KBI1 121349Z 11002KT M03/M10 A3029 RMK A01 T10321095  RH  061%=      5-min Rain = 0
KBI1 121350Z 11002KT M03/M10 A3029 RMK A01 T10321095  RH  062%=      5-min Rain = 0
KBI1 121351Z 11002KT M03/M10 A3029 RMK A01 T10321095  RH  062%=      5-min Rain = 0
KBI1 121352Z 11002KT M03/M10 A3029 RMK A01 T10321095  RH  062%=      5-min Rain = 0
KBI1 121353Z 12002KT M03/M10 A3029 RMK A01 T10331095  RH  062%=      5-min Rain = 0
KBI1 121354Z 13002KT M03/M10 A3029 RMK A01 T10331095  RH  062%=      5-min Rain = 0
KBI1 121355Z 13003KT M03/M10 A3029 RMK A01 T10321095  RH  062%=      5-min Rain = 0
KBI1 121356Z 12003KT M03/M10 A3029 RMK A01 T10321095  RH  062%=      5-min Rain = 0
KBI1 121357Z 12002KT M03/M10 A3029 RMK A01 T10311095  RH  061%=      5-min Rain = 0
KBI1 121358Z 12002KT M03/M10 A3029 RMK A01 T10311095  RH  061%=      5-min Rain = 0
KBI1 121359Z 12001KT M03/M10 A3029 RMK A01 T10301095  RH  061%=      5-min Rain = 0
KBI1 121400Z 11002KT M03/M10 A3029 RMK A01 T10301095  RH  061%=      5-min Rain = 0
KBI1 121401Z 11001KT M03/M10 A3029 RMK A01 T10301095  RH  061%=      5-min Rain = 0
KBI1 121402Z 11001KT M03/M10 A3029 RMK A01 T10301095  RH  061%=      5-min Rain = 0
KBI1 121403Z 11002KT M03/M09 A3029 RMK A01 T10291094  RH  061%=      5-min Rain = 0
KBI1 121404Z 11002KT M03/M09 A3029 RMK A01 T10271094  RH  060%=      5-min Rain = 0
KBI1 121405Z 11002KT M03/M09 A3029 RMK A01 T10261094  RH  059%=      5-min Rain = 0
KBI1 121406Z 11002KT M02/M09 A3029 RMK A01 T10241094  RH  059%=      5-min Rain = 0
KBI1 121407Z 11002KT M03/M10 A3029 RMK A01 T10251095  RH  059%=      5-min Rain = 0
KBI1 121408Z 11002KT M03/M10 A3029 RMK A01 T10261095  RH  059%=      5-min Rain = 0
KBI1 121409Z 11002KT M03/M10 A3029 RMK A01 T10271095  RH  059%=      5-min Rain = 0
KBI1 121410Z 11001KT M03/M10 A3029 RMK A01 T10281095  RH  060%=      5-min Rain = 0
KBI1 121411Z 11001KT M03/M09 A3029 RMK A01 T10281094  RH  060%=      5-min Rain = 0
KBI1 121412Z 11000KT M03/M09 A3029 RMK A01 T10281094  RH  061%=      5-min Rain = 0
KBI1 121413Z 11000KT M03/M09 A3029 RMK A01 T10291094  RH  061%=      5-min Rain = 0
KBI1 121414Z 11001KT M03/M09 A3029 RMK A01 T10301094  RH  061%=      5-min Rain = 0
KBI1 121415Z 11002KT M03/M09 A303 RMK A01 T10291094  RH  061%=      5-min Rain = 0
KBI1 121416Z 11002KT M03/M09 A303 RMK A01 T10291094  RH  061%=      5-min Rain = 0
KBI1 121417Z 11002KT M03/M09 A303 RMK A01 T10281093  RH  061%=      5-min Rain = 0
KBI1 121418Z 11002KT M03/M09 A303 RMK A01 T10271091  RH  061%=      5-min Rain = 0
KBI1 121419Z 12002KT M03/M09 A303 RMK A01 T10251092  RH  060%=      5-min Rain = 0
KBI1 121420Z 12002KT M02/M09 A303 RMK A01 T10241092  RH  060%=      5-min Rain = 0
KBI1 121421Z 12002KT M02/M09 A303 RMK A01 T10241093  RH  059%=      5-min Rain = 0
KBI1 121422Z 13002KT M02/M09 A303 RMK A01 T10231092  RH  059%=      5-min Rain = 0
KBI1 121423Z 13002KT M02/M09 A303 RMK A01 T10231089  RH  060%=      5-min Rain = 0
KBI1 121424Z 12002KT M02/M09 A303 RMK A01 T10241090  RH  060%=      5-min Rain = 0
KBI1 121425Z 12002KT M02/M09 A303 RMK A01 T10241090  RH  060%=      5-min Rain = 0
KBI1 121426Z 13002KT M02/M09 A303 RMK A01 T10231088  RH  061%=      5-min Rain = 0
KBI1 121427Z 14002KT M02/M09 A303 RMK A01 T10231088  RH  061%=      5-min Rain = 0
KBI1 121428Z 15002KT M02/M09 A303 RMK A01 T10231088  RH  061%=      5-min Rain = 0
KBI1 121429Z 14002KT M02/M09 A303 RMK A01 T10241089  RH  061%=      5-min Rain = 0
KBI1 121430Z 14003KT M03/M09 A303 RMK A01 T10251089  RH  061%=      5-min Rain = 0
KBI1 121431Z 15002KT M03/M09 A303 RMK A01 T10251089  RH  062%=      5-min Rain = 0
KBI1 121432Z 16003KT M03/M09 A303 RMK A01 T10251086  RH  063%=      5-min Rain = 0
KBI1 121433Z 18003KT M02/M09 A303 RMK A01 T10241086  RH  063%=      5-min Rain = 0
KBI1 121434Z 19004KT M03/M09 A303 RMK A01 T10251086  RH  063%=      5-min Rain = 0
KBI1 121435Z 18003KT M03/M09 A303 RMK A01 T10251089  RH  061%=      5-min Rain = 0
KBI1 121436Z 18003KT M03/M09 A303 RMK A01 T10251089  RH  061%=      5-min Rain = 0
KBI1 121437Z 17003KT M03/M09 A303 RMK A01 T10251090  RH  061%=      5-min Rain = 0
KBI1 121438Z 16003KT M02/M09 A303 RMK A01 T10241088  RH  061%=      5-min Rain = 0
KBI1 121439Z 14002KT M02/M09 A303 RMK A01 T10231086  RH  062%=      5-min Rain = 0
KBI1 121440Z 14002KT M02/M09 A303 RMK A01 T10221085  RH  062%=      5-min Rain = 0
KBI1 121441Z 14002KT M02/M09 A303 RMK A01 T10201085  RH  061%=      5-min Rain = 0
KBI1 121442Z 14002KT M02/M08 A303 RMK A01 T10191084  RH  061%=      5-min Rain = 0
KBI1 121443Z 14001KT M02/M08 A303 RMK A01 T10171082  RH  061%=      5-min Rain = 0
KBI1 121444Z 14002KT M02/M08 A303 RMK A01 T10151081  RH  061%=      5-min Rain = 0
KBI1 121445Z 15002KT M01/M08 A303 RMK A01 T10141082  RH  060%=      5-min Rain = 0
KBI1 121446Z 15002KT M01/M08 A303 RMK A01 T10131081  RH  060%=      5-min Rain = 0
KBI1 121447Z 16002KT M01/M08 A303 RMK A01 T10121080  RH  060%=      5-min Rain = 0
KBI1 121448Z 16002KT M01/M08 A303 RMK A01 T10121081  RH  059%=      5-min Rain = 0
KBI1 121449Z 17002KT M01/M08 A303 RMK A01 T10111083  RH  058%=      5-min Rain = 0
KBI1 121450Z 16002KT M01/M08 A303 RMK A01 T10111084  RH  058%=      5-min Rain = 0
KBI1 121451Z 16002KT M01/M08 A303 RMK A01 T10111080  RH  059%=      5-min Rain = 0
KBI1 121452Z 16002KT M01/M08 A303 RMK A01 T10101079  RH  060%=      5-min Rain = 0
KBI1 121453Z 16002KT M01/M08 A303 RMK A01 T10091080  RH  059%=      5-min Rain = 0
KBI1 121454Z 17002KT M01/M08 A303 RMK A01 T10091079  RH  059%=      5-min Rain = 0
KBI1 121455Z 17003KT M01/M08 A303 RMK A01 T10081077  RH  060%=      5-min Rain = 0
KBI1 121456Z 16003KT M01/M08 A303 RMK A01 T10081081  RH  057%=      5-min Rain = 0
KBI1 121457Z 15003KT M01/M08 A303 RMK A01 T10081083  RH  057%=      5-min Rain = 0
KBI1 121458Z 16003KT M01/M08 A303 RMK A01 T10071083  RH  056%=      5-min Rain = 0
KBI1 121459Z 15003KT M01/M08 A303 RMK A01 T10061081  RH  057%=      5-min Rain = 0
KBI1 121500Z 13002KT M01/M08 A303 RMK A01 T10051080  RH  057%=      5-min Rain = 0
KBI1 121501Z 13003KT M00/M08 A303 RMK A01 T10031080  RH  056%=      5-min Rain = 0
KBI1 121502Z 13003KT M00/M08 A303 RMK A01 T10021082  RH  055%=      5-min Rain = 0
KBI1 121503Z 15002KT M00/M08 A303 RMK A01 T10011084  RH  053%=      5-min Rain = 0
KBI1 121504Z 15002KT M00/M08 A303 RMK A01 T10011082  RH  054%=      5-min Rain = 0
KBI1 121505Z 14002KT 00/M08 A303 RMK A01 T00011081  RH  054%=      5-min Rain = 0
KBI1 121506Z 13003KT 00/M08 A303 RMK A01 T00021080  RH  054%=      5-min Rain = 0
KBI1 121507Z 13003KT 00/M08 A303 RMK A01 T00031080  RH  054%=      5-min Rain = 0
KBI1 121508Z 12004KT 00/M08 A303 RMK A01 T00031081  RH  053%=      5-min Rain = 0
KBI1 121509Z 15002KT 01/M08 A303 RMK A01 T00051079  RH  054%=      5-min Rain = 0
KBI1 121510Z 14001KT 01/M08 A303 RMK A01 T00061077  RH  054%=      5-min Rain = 0
KBI1 121511Z 13002KT 01/M08 A303 RMK A01 T00081076  RH  053%=      5-min Rain = 0
KBI1 121512Z 12003KT 01/M08 A303 RMK A01 T00101077  RH  052%=      5-min Rain = 0
KBI1 121513Z 11003KT 01/M08 A303 RMK A01 T00111078  RH  051%=      5-min Rain = 0
KBI1 121514Z 10005KT 01/M08 A303 RMK A01 T00111079  RH  051%=      5-min Rain = 0
KBI1 121515Z 11005KT 01/M08 A303 RMK A01 T00121077  RH  052%=      5-min Rain = 0
KBI1 121516Z 10004KT 01/M08 A303 RMK A01 T00121076  RH  052%=      5-min Rain = 0
KBI1 121517Z 11003KT 01/M08 A3031 RMK A01 T00131075  RH  052%=      5-min Rain = 0
KBI1 121518Z 10003KT 01/M08 A3031 RMK A01 T00141075  RH  052%=      5-min Rain = 0
KBI1 121519Z 11003KT 02/M07 A3031 RMK A01 T00161071  RH  052%=      5-min Rain = 0
KBI1 121520Z 11004KT 02/M07 A3031 RMK A01 T00171072  RH  051%=      5-min Rain = 0
KBI1 121521Z 12004KT 02/M07 A3031 RMK A01 T00171074  RH  051%=      5-min Rain = 0
KBI1 121522Z 11004KT 02/M07 A3031 RMK A01 T00171073  RH  051%=      5-min Rain = 0
KBI1 121523Z 11003KT 02/M08 A3031 RMK A01 T00171075  RH  051%=      5-min Rain = 0
KBI1 121524Z 10004KT 02/M07 A3031 RMK A01 T00171074  RH  051%=      5-min Rain = 0
KBI1 121525Z 11005KT 02/M08 A3031 RMK A01 T00171077  RH  050%=      5-min Rain = 0
KBI1 121526Z 10004KT 02/M08 A3031 RMK A01 T00161076  RH  050%=      5-min Rain = 0
KBI1 121527Z 10003KT 02/M08 A3031 RMK A01 T00161075  RH  051%=      5-min Rain = 0
KBI1 121528Z 10004KT 02/M07 A3031 RMK A01 T00161074  RH  051%=      5-min Rain = 0
KBI1 121529Z 10005KT 02/M07 A3031 RMK A01 T00171074  RH  051%=      5-min Rain = 0
KBI1 121530Z 10005KT 02/M07 A3031 RMK A01 T00171074  RH  051%=      5-min Rain = 0
KBI1 121531Z 11004KT 02/M07 A3031 RMK A01 T00191073  RH  051%=      5-min Rain = 0
KBI1 121532Z 11004KT 02/M07 A3031 RMK A01 T00191074  RH  050%=      5-min Rain = 0
KBI1 121533Z 13004KT 02/M07 A3031 RMK A01 T00201072  RH  051%=      5-min Rain = 0
KBI1 121534Z 12004KT 02/M07 A3031 RMK A01 T00211072  RH  050%=      5-min Rain = 0
KBI1 121535Z 11004KT 02/M07 A3031 RMK A01 T00221072  RH  050%=      5-min Rain = 0
KBI1 121536Z 11004KT 02/M07 A3031 RMK A01 T00241069  RH  050%=      5-min Rain = 0
KBI1 121537Z 11005KT 03/M07 A3032 RMK A01 T00261069  RH  049%=      5-min Rain = 0
KBI1 121538Z 10004KT 03/M07 A3032 RMK A01 T00261069  RH  049%=      5-min Rain = 0
KBI1 121539Z 11004KT 03/M07 A3032 RMK A01 T00261068  RH  050%=      5-min Rain = 0
KBI1 121540Z 10003KT 03/M07 A3032 RMK A01 T00261068  RH  050%=      5-min Rain = 0
KBI1 121541Z 11003KT 03/M07 A3032 RMK A01 T00281067  RH  050%=      5-min Rain = 0
KBI1 121542Z 11003KT 03/M07 A3032 RMK A01 T00301068  RH  049%=      5-min Rain = 0
KBI1 121543Z 11004KT 03/M07 A3032 RMK A01 T00301068  RH  049%=      5-min Rain = 0
KBI1 121544Z 12004KT 03/M07 A3032 RMK A01 T00311068  RH  048%=      5-min Rain = 0
KBI1 121545Z 13005KT 03/M07 A3032 RMK A01 T00341067  RH  048%=      5-min Rain = 0
KBI1 121546Z 12004KT 03/M07 A3032 RMK A01 T00341069  RH  047%=      5-min Rain = 0
KBI1 121547Z 11004KT 03/M07 A3032 RMK A01 T00341068  RH  047%=      5-min Rain = 0
KBI1 121548Z 13004KT 04/M07 A3032 RMK A01 T00351067  RH  047%=      5-min Rain = 0
KBI1 121549Z 12005KT 04/M07 A3032 RMK A01 T00361068  RH  046%=      5-min Rain = 0
KBI1 121550Z 13004KT 04/M07 A3032 RMK A01 T00371071  RH  045%=      5-min Rain = 0
KBI1 121551Z 10004KT 04/M07 A3032 RMK A01 T00391069  RH  045%=      5-min Rain = 0
KBI1 121552Z 10005KT 04/M07 A3032 RMK A01 T00421069  RH  044%=      5-min Rain = 0
KBI1 121553Z 11005KT 04/M07 A3032 RMK A01 T00421071  RH  044%=      5-min Rain = 0
KBI1 121554Z 13005KT 04/M07 A3032 RMK A01 T00421072  RH  043%=      5-min Rain = 0
KBI1 121555Z 13004KT 04/M07 A3032 RMK A01 T00411072  RH  043%=      5-min Rain = 0
KBI1 121556Z 14003KT 04/M07 A3032 RMK A01 T00441067  RH  044%=      5-min Rain = 0
KBI1 121557Z 12005KT 05/M07 A3032 RMK A01 T00481067  RH  043%=      5-min Rain = 0
KBI1 121558Z 12005KT 05/M07 A3032 RMK A01 T00481072  RH  041%=      5-min Rain = 0
KBI1 121559Z 12006KT 05/M07 A3032 RMK A01 T00461074  RH  041%=      5-min Rain = 0
KBI1 121600Z 12005KT 05/M07 A3032 RMK A01 T00451073  RH  042%=      5-min Rain = 0
KBI1 121601Z 12004KT 05/M07 A3032 RMK A01 T00461071  RH  042%=      5-min Rain = 0
KBI1 121602Z 14005KT 05/M07 A3032 RMK A01 T00481073  RH  041%=      5-min Rain = 0
KBI1 121603Z 13005KT 05/M07 A3032 RMK A01 T00481073  RH  041%=      5-min Rain = 0
KBI1 121604Z 13007KT 05/M07 A3032 RMK A01 T00481074  RH  041%=      5-min Rain = 0
KBI1 121605Z 14006KT 05/M08 A3032 RMK A01 T00481076  RH  040%=      5-min Rain = 0
KBI1 121606Z 13006KT 05/M08 A3032 RMK A01 T00481075  RH  041%=      5-min Rain = 0
KBI1 121607Z 14006KT 05/M08 A3032 RMK A01 T00481076  RH  040%=      5-min Rain = 0
KBI1 121608Z 12007KT 05/M08 A3032 RMK A01 T00481077  RH  040%=      5-min Rain = 0
KBI1 121609Z 11006KT 05/M08 A3032 RMK A01 T00481077  RH  040%=      5-min Rain = 0
KBI1 121610Z 11007KT 05/M08 A3032 RMK A01 T00481076  RH  040%=      5-min Rain = 0
KBI1 121611Z 12005KT 05/M08 A3032 RMK A01 T00481076  RH  040%=      5-min Rain = 0
KBI1 121612Z 14003KT 05/M07 A3032 RMK A01 T00501074  RH  040%=      5-min Rain = 0
KBI1 121613Z 14004KT 05/M07 A3032 RMK A01 T00521074  RH  040%=      5-min Rain = 0
KBI1 121614Z 12004KT 05/M07 A3032 RMK A01 T00541074  RH  039%=      5-min Rain = 0
KBI1 121615Z 11007KT 06/M08 A3032 RMK A01 T00551077  RH  038%=      5-min Rain = 0
KBI1 121616Z 12007KT 05/M08 A3031 RMK A01 T00541078  RH  038%=      5-min Rain = 0
KBI1 121617Z 11007KT 05/M08 A3031 RMK A01 T00531078  RH  038%=      5-min Rain = 0
KBI1 121618Z 10006KT 05/M08 A3031 RMK A01 T00531077  RH  039%=      5-min Rain = 0
KBI1 121619Z 12006KT 05/M08 A3031 RMK A01 T00531077  RH  039%=      5-min Rain = 0
KBI1 121620Z 12006KT 05/M08 A3031 RMK A01 T00531077  RH  038%=      5-min Rain = 0
KBI1 121621Z 13005KT 05/M08 A3031 RMK A01 T00541075  RH  039%=      5-min Rain = 0
KBI1 121622Z 11006KT 06/M08 A3031 RMK A01 T00561075  RH  038%=      5-min Rain = 0
KBI1 121623Z 11007KT 06/M08 A3031 RMK A01 T00581078  RH  037%=      5-min Rain = 0
KBI1 121624Z 12006KT 06/M08 A3031 RMK A01 T00571081  RH  037%=      5-min Rain = 0
KBI1 121625Z 12006KT 06/M08 A3031 RMK A01 T00561079  RH  037%=      5-min Rain = 0
KBI1 121626Z 12006KT 06/M08 A3031 RMK A01 T00551079  RH  037%=      5-min Rain = 0
KBI1 121627Z 14007KT 06/M08 A3031 RMK A01 T00551079  RH  037%=      5-min Rain = 0
KBI1 121628Z 14006KT 06/M08 A3031 RMK A01 T00561078  RH  037%=      5-min Rain = 0
KBI1 121629Z 13007KT 06/M08 A3031 RMK A01 T00571080  RH  037%=      5-min Rain = 0
KBI1 121630Z 14006KT 06/M08 A3031 RMK A01 T00571082  RH  036%=      5-min Rain = 0
KBI1 121631Z 13007KT 06/M08 A3031 RMK A01 T00581082  RH  036%=      5-min Rain = 0
KBI1 121632Z 13007KT 06/M08 A3031 RMK A01 T00591081  RH  036%=      5-min Rain = 0
KBI1 121633Z 12007KT 06/M08 A3031 RMK A01 T00601083  RH  035%=      5-min Rain = 0
KBI1 121634Z 13006KT 06/M08 A3031 RMK A01 T00591084  RH  035%=      5-min Rain = 0
KBI1 121635Z 13008KT 06/M08 A3031 RMK A01 T00611084  RH  035%=      5-min Rain = 0
KBI1 121636Z 14005KT 06/M09 A3031 RMK A01 T00611086  RH  034%=      5-min Rain = 0
KBI1 121637Z 15005KT 06/M08 A3031 RMK A01 T00621084  RH  034%=      5-min Rain = 0
KBI1 121638Z 14009KT 06/M08 A3031 RMK A01 T00641084  RH  034%=      5-min Rain = 0
KBI1 121639Z 14007KT 06/M09 A3031 RMK A01 T00631088  RH  033%=      5-min Rain = 0
KBI1 121640Z 13006KT 06/M09 A3031 RMK A01 T00621087  RH  033%=      5-min Rain = 0
KBI1 121641Z 13007KT 07/M08 A3031 RMK A01 T00651084  RH  034%=      5-min Rain = 0
KBI1 121642Z 12007KT 07/M09 A3031 RMK A01 T00651087  RH  033%=      5-min Rain = 0
KBI1 121643Z 12008KT 07/M09 A3031 RMK A01 T00661088  RH  032%=      5-min Rain = 0
KBI1 121644Z 13008KT 07/M09 A303 RMK A01 T00651088  RH  033%=      5-min Rain = 0
KBI1 121645Z 12008KT 06/M09 A303 RMK A01 T00641086  RH  033%=      5-min Rain = 0
KBI1 121646Z 14007KT 06/M09 A303 RMK A01 T00631085  RH  034%=      5-min Rain = 0
KBI1 121647Z 14008KT 06/M08 A303 RMK A01 T00641084  RH  034%=      5-min Rain = 0
KBI1 121648Z 12009KT 07/M09 A303 RMK A01 T00661087  RH  033%=      5-min Rain = 0
KBI1 121649Z 13008KT 07/M09 A303 RMK A01 T00651087  RH  033%=      5-min Rain = 0
KBI1 121650Z 13008KT 07/M09 A303 RMK A01 T00651088  RH  032%=      5-min Rain = 0
KBI1 121651Z 12008KT 07/M09 A303 RMK A01 T00671088  RH  032%=      5-min Rain = 0
KBI1 121652Z 12009KT 07/M09 A303 RMK A01 T00671090  RH  032%=      5-min Rain = 0
KBI1 121653Z 12010KT 07/M09 A303 RMK A01 T00661090  RH  032%=      5-min Rain = 0
KBI1 121654Z 13009KT 07/M09 A303 RMK A01 T00671089  RH  032%=      5-min Rain = 0
KBI1 121655Z 13010KT 07/M09 A303 RMK A01 T00681091  RH  031%=      5-min Rain = 0
KBI1 121656Z 13009KT 07/M09 A303 RMK A01 T00681093  RH  031%=      5-min Rain = 0
KBI1 121657Z 13008KT 07/M09 A303 RMK A01 T00671092  RH  031%=      5-min Rain = 0
KBI1 121658Z 13008KT 07/M09 A303 RMK A01 T00681092  RH  031%=      5-min Rain = 0
KBI1 121659Z 14005KT 07/M09 A303 RMK A01 T00711087  RH  031%=      5-min Rain = 0
KBI1 121700Z 15007KT 07/M09 A3029 RMK A01 T00741086  RH  031%=      5-min Rain = 0
KBI1 121701Z 15007KT 07/M09 A3029 RMK A01 T00741088  RH  031%=      5-min Rain = 0
KBI1 121702Z 13007G12KT 07/M09 A3029 RMK A01 T00731089  RH  031%=      5-min Rain = 0
KBI1 121703Z 13008KT 07/M09 A3029 RMK A01 T00721092  RH  030%=      5-min Rain = 0
KBI1 121704Z 13007KT 07/M09 A3029 RMK A01 T00721091  RH  030%=      5-min Rain = 0
KBI1 121705Z 13008KT 07/M09 A3029 RMK A01 T00741091  RH  030%=      5-min Rain = 0
KBI1 121706Z 12010KT 07/M09 A3029 RMK A01 T00731092  RH  030%=      5-min Rain = 0
KBI1 121707Z 12009G14KT 07/M09 A3029 RMK A01 T00731091  RH  030%=      5-min Rain = 0
KBI1 121708Z 13009KT 07/M09 A3029 RMK A01 T00731090  RH  030%=      5-min Rain = 0
KBI1 121709Z 13009KT 07/M09 A3029 RMK A01 T00731089  RH  030%=      5-min Rain = 0
KBI1 121710Z 15007KT 07/M09 A3029 RMK A01 T00731090  RH  030%=      5-min Rain = 0
KBI1 121711Z 16008KT 08/M09 A3029 RMK A01 T00751088  RH  030%=      5-min Rain = 0
KBI1 121712Z 15009KT 08/M09 A3029 RMK A01 T00761089  RH  030%=      5-min Rain = 0
KBI1 121713Z 15009KT 08/M09 A3029 RMK A01 T00761090  RH  030%=      5-min Rain = 0
KBI1 121714Z 15009KT 08/M09 A3029 RMK A01 T00771092  RH  029%=      5-min Rain = 0
KBI1 121715Z 15010KT 08/M09 A3029 RMK A01 T00771090  RH  030%=      5-min Rain = 0
KBI1 121716Z 15007KT 08/M09 A3029 RMK A01 T00771089  RH  030%=      5-min Rain = 0
KBI1 121717Z 15008KT 08/M09 A3029 RMK A01 T00781090  RH  029%=      5-min Rain = 0
KBI1 121718Z 15006KT 08/M09 A3029 RMK A01 T00781090  RH  029%=      5-min Rain = 0
KBI1 121719Z 14007G12KT 08/M09 A3029 RMK A01 T00791088  RH  030%=      5-min Rain = 0
KBI1 121720Z 13008KT 08/M09 A3029 RMK A01 T00821090  RH  029%=      5-min Rain = 0
KBI1 121721Z 15009KT 08/M09 A3029 RMK A01 T00811092  RH  028%=      5-min Rain = 0
KBI1 121722Z 15010KT 08/M09 A3029 RMK A01 T00811093  RH  028%=      5-min Rain = 0
KBI1 121723Z 15008KT 08/M09 A3028 RMK A01 T00801094  RH  028%=      5-min Rain = 0
KBI1 121724Z 14008KT 08/M10 A3028 RMK A01 T00791095  RH  028%=      5-min Rain = 0
KBI1 121725Z 13009KT 08/M10 A3028 RMK A01 T00791096  RH  028%=      5-min Rain = 0
KBI1 121726Z 15009KT 08/M10 A3028 RMK A01 T00821095  RH  027%=      5-min Rain = 0
KBI1 121727Z 15006KT 08/M09 A3028 RMK A01 T00831093  RH  028%=      5-min Rain = 0
KBI1 121728Z 14007KT 09/M09 A3028 RMK A01 T00861090  RH  028%=      5-min Rain = 0
KBI1 121729Z 13011KT 09/M10 A3028 RMK A01 T00871095  RH  027%=      5-min Rain = 0
KBI1 121730Z 12010KT 08/M10 A3028 RMK A01 T00841096  RH  027%=      5-min Rain = 0
KBI1 121731Z 15008KT 08/M10 A3028 RMK A01 T00831096  RH  027%=      5-min Rain = 0
KBI1 121732Z 15009KT 08/M10 A3027 RMK A01 T00831095  RH  027%=      5-min Rain = 0
KBI1 121733Z 16010KT 09/M10 A3027 RMK A01 T00851096  RH  027%=      5-min Rain = 0
KBI1 121734Z 17008KT 09/M09 A3027 RMK A01 T00851094  RH  027%=      5-min Rain = 0
KBI1 121735Z 16008KT 09/M09 A3027 RMK A01 T00861093  RH  027%=      5-min Rain = 0
KBI1 121736Z 16008KT 09/M09 A3027 RMK A01 T00851094  RH  027%=      5-min Rain = 0
KBI1 121737Z 16009KT 09/M09 A3027 RMK A01 T00871089  RH  028%=      5-min Rain = 0
KBI1 121738Z 15011KT 09/M09 A3027 RMK A01 T00901089  RH  027%=      5-min Rain = 0
KBI1 121739Z 15008KT 09/M09 A3027 RMK A01 T00891093  RH  027%=      5-min Rain = 0
KBI1 121740Z 16008KT 09/M09 A3027 RMK A01 T00871091  RH  028%=      5-min Rain = 0
KBI1 121741Z 17009KT 09/M09 A3027 RMK A01 T00881089  RH  027%=      5-min Rain = 0
KBI1 121742Z 16009KT 09/M09 A3026 RMK A01 T00891089  RH  027%=      5-min Rain = 0
KBI1 121743Z 16012KT 09/M09 A3026 RMK A01 T00901089  RH  027%=      5-min Rain = 0
KBI1 121744Z 16011KT 09/M09 A3026 RMK A01 T00891090  RH  027%=      5-min Rain = 0
KBI1 121745Z 14011KT 09/M09 A3026 RMK A01 T00881094  RH  026%=      5-min Rain = 0
KBI1 121746Z 16013KT 09/M10 A3026 RMK A01 T00891095  RH  026%=      5-min Rain = 0
KBI1 121747Z 16011KT 09/M10 A3026 RMK A01 T00881097  RH  026%=      5-min Rain = 0
KBI1 121748Z 16013KT 09/M10 A3026 RMK A01 T00871100  RH  026%=      5-min Rain = 0
KBI1 121749Z 17009KT 09/M10 A3026 RMK A01 T00861099  RH  026%=      5-min Rain = 0
KBI1 121750Z 16008G14KT 09/M09 A3026 RMK A01 T00901092  RH  027%=      5-min Rain = 0
KBI1 121751Z 17010KT 09/M09 A3026 RMK A01 T00931091  RH  026%=      5-min Rain = 0
KBI1 121752Z 17013KT 09/M10 A3026 RMK A01 T00931096  RH  025%=      5-min Rain = 0
KBI1 121753Z 17009KT 09/M10 A3025 RMK A01 T00911101  RH  025%=      5-min Rain = 0
KBI1 121754Z 18013KT 09/M10 A3025 RMK A01 T00931097  RH  025%=      5-min Rain = 0
KBI1 121755Z 17014KT 09/M10 A3025 RMK A01 T00931097  RH  025%=      5-min Rain = 0
KBI1 121756Z 15008KT 09/M10 A3025 RMK A01 T00931097  RH  025%=      5-min Rain = 0
KBI1 121757Z 18008KT 09/M10 A3025 RMK A01 T00941095  RH  025%=      5-min Rain = 0
KBI1 121758Z 15011KT 10/M09 A3025 RMK A01 T00961094  RH  025%=      5-min Rain = 0
KBI1 121759Z 16010KT 10/M10 A3025 RMK A01 T00951097  RH  025%=      5-min Rain = 0
KBI1 121800Z 17010KT 10/M10 A3025 RMK A01 T00951095  RH  025%=      5-min Rain = 0
KBI1 121801Z 17013KT 10/M10 A3025 RMK A01 T00961095  RH  025%=      5-min Rain = 0
KBI1 121802Z 16012KT 10/M10 A3025 RMK A01 T00961096  RH  025%=      5-min Rain = 0
KBI1 121803Z 16011G16KT 09/M10 A3025 RMK A01 T00941098  RH  025%=      5-min Rain = 0
KBI1 121804Z 18010KT 09/M10 A3025 RMK A01 T00931097  RH  025%=      5-min Rain = 0
KBI1 121805Z 16014KT 10/M10 A3024 RMK A01 T00951097  RH  025%=      5-min Rain = 0
KBI1 121806Z 16009KT 10/M10 A3024 RMK A01 T00951098  RH  024%=      5-min Rain = 0
KBI1 121807Z 18010KT 10/M10 A3024 RMK A01 T00971095  RH  025%=      5-min Rain = 0
KBI1 121808Z 17012KT 10/M10 A3024 RMK A01 T00981096  RH  024%=      5-min Rain = 0
KBI1 121809Z 16010KT 10/M10 A3024 RMK A01 T00981097  RH  024%=      5-min Rain = 0
KBI1 121810Z 17011KT 10/M10 A3024 RMK A01 T00991098  RH  024%=      5-min Rain = 0
KBI1 121811Z 17015KT 10/M10 A3024 RMK A01 T00981100  RH  024%=      5-min Rain = 0
KBI1 121812Z 16015KT 10/M10 A3024 RMK A01 T00961102  RH  024%=      5-min Rain = 0
KBI1 121813Z 16012G17KT 09/M10 A3024 RMK A01 T00941101  RH  024%=      5-min Rain = 0
KBI1 121814Z 16011KT 10/M10 A3024 RMK A01 T00951099  RH  024%=      5-min Rain = 0
KBI1 121815Z 16010KT 10/M10 A3024 RMK A01 T00981096  RH  024%=      5-min Rain = 0
KBI1 121816Z 16015KT 10/M10 A3024 RMK A01 T01011096  RH  024%=      5-min Rain = 0
KBI1 121817Z 16014KT 10/M10 A3023 RMK A01 T00981101  RH  024%=      5-min Rain = 0
KBI1 121818Z 17014KT 10/M10 A3023 RMK A01 T00971099  RH  024%=      5-min Rain = 0
KBI1 121819Z 17011KT 10/M10 A3023 RMK A01 T00981100  RH  024%=      5-min Rain = 0
KBI1 121820Z 17011KT 10/M10 A3023 RMK A01 T00981100  RH  024%=      5-min Rain = 0
KBI1 121821Z 17013KT 10/M10 A3023 RMK A01 T01001097  RH  024%=      5-min Rain = 0
KBI1 121822Z 16013KT 10/M10 A3023 RMK A01 T01031097  RH  023%=      5-min Rain = 0
KBI1 121823Z 17016KT 10/M10 A3023 RMK A01 T01011100  RH  023%=      5-min Rain = 0
KBI1 121824Z 17014KT 10/M10 A3023 RMK A01 T00991100  RH  024%=      5-min Rain = 0
KBI1 121825Z 17011KT 10/M10 A3023 RMK A01 T00991099  RH  024%=      5-min Rain = 0
KBI1 121826Z 16012KT 10/M10 A3022 RMK A01 T01011097  RH  024%=      5-min Rain = 0
KBI1 121827Z 17013KT 10/M10 A3022 RMK A01 T01031097  RH  024%=      5-min Rain = 0
KBI1 121828Z 18013KT 10/M10 A3022 RMK A01 T01021098  RH  023%=      5-min Rain = 0
KBI1 121829Z 17011G17KT 10/M10 A3022 RMK A01 T01031097  RH  024%=      5-min Rain = 0
KBI1 121830Z 18013KT 11/M10 A3022 RMK A01 T01051097  RH  023%=      5-min Rain = 0
KBI1 121831Z 18013KT 10/M10 A3022 RMK A01 T01041099  RH  023%=      5-min Rain = 0
KBI1 121832Z 16013KT 10/M10 A3022 RMK A01 T01021100  RH  023%=      5-min Rain = 0
KBI1 121833Z 16014G19KT 10/M10 A3022 RMK A01 T01011099  RH  023%=      5-min Rain = 0
KBI1 121834Z 17013KT 10/M10 A3022 RMK A01 T01011099  RH  023%=      5-min Rain = 0
KBI1 121835Z 17011KT 10/M10 A3022 RMK A01 T01011099  RH  023%=      5-min Rain = 0
KBI1 121836Z 17015KT 10/M10 A3021 RMK A01 T01031096  RH  024%=      5-min Rain = 0
KBI1 121837Z 17012G17KT 11/M10 A3021 RMK A01 T01051096  RH  023%=      5-min Rain = 0
KBI1 121838Z 16013KT 11/M10 A3021 RMK A01 T01061097  RH  023%=      5-min Rain = 0
KBI1 121839Z 17013KT 11/M10 A3021 RMK A01 T01061097  RH  023%=      5-min Rain = 0
KBI1 121840Z 17015KT 11/M10 A3021 RMK A01 T01061097  RH  023%=      5-min Rain = 0
KBI1 121841Z 17016KT 11/M10 A3021 RMK A01 T01051098  RH  023%=      5-min Rain = 0
KBI1 121842Z 17015KT 10/M10 A3021 RMK A01 T01041098  RH  023%=      5-min Rain = 0
KBI1 121843Z 18014KT 10/M10 A3021 RMK A01 T01031098  RH  023%=      5-min Rain = 0
KBI1 121844Z 17014KT 10/M10 A3021 RMK A01 T01041098  RH  023%=      5-min Rain = 0
KBI1 121845Z 17015KT 10/M10 A3021 RMK A01 T01041098  RH  023%=      5-min Rain = 0
KBI1 121846Z 16012KT 10/M10 A3021 RMK A01 T01041097  RH  023%=      5-min Rain = 0
KBI1 121847Z 17013KT 10/M10 A3021 RMK A01 T01041097  RH  023%=      5-min Rain = 0
KBI1 121848Z 17016KT 10/M10 A302 RMK A01 T01041097  RH  023%=      5-min Rain = 0
KBI1 121849Z 17015KT 11/M10 A302 RMK A01 T01051097  RH  023%=      5-min Rain = 0
KBI1 121850Z 17014KT 11/M10 A302 RMK A01 T01051097  RH  023%=      5-min Rain = 0
KBI1 121851Z 17010KT 11/M10 A302 RMK A01 T01051096  RH  023%=      5-min Rain = 0
KBI1 121852Z 17012KT 11/M10 A302 RMK A01 T01071095  RH  023%=      5-min Rain = 0
KBI1 121853Z 17014KT 11/M10 A302 RMK A01 T01071096  RH  023%=      5-min Rain = 0
KBI1 121854Z 17013KT 11/M10 A302 RMK A01 T01071095  RH  023%=      5-min Rain = 0
KBI1 121855Z 17013KT 11/M09 A302 RMK A01 T01101092  RH  023%=      5-min Rain = 0
KBI1 121856Z 17014KT 11/M09 A302 RMK A01 T01091094  RH  023%=      5-min Rain = 0
KBI1 121857Z 18011KT 11/M09 A302 RMK A01 T01081093  RH  023%=      5-min Rain = 0
KBI1 121858Z 19012KT 11/M09 A302 RMK A01 T01111092  RH  023%=      5-min Rain = 0
KBI1 121859Z 18014KT 11/M09 A302 RMK A01 T01121094  RH  023%=      5-min Rain = 0
KBI1 121900Z 18018KT 11/M10 A302 RMK A01 T01111095  RH  023%=      5-min Rain = 0
KBI1 121901Z 17013KT 11/M10 A302 RMK A01 T01081096  RH  023%=      5-min Rain = 0
KBI1 121902Z 18011G16KT 11/M09 A302 RMK A01 T01091093  RH  023%=      5-min Rain = 0
KBI1 121903Z 17014KT 11/M09 A3019 RMK A01 T01121092  RH  023%=      5-min Rain = 0
KBI1 121904Z 17013G18KT 11/M09 A3019 RMK A01 T01111094  RH  023%=      5-min Rain = 0
KBI1 121905Z 16013G18KT 11/M09 A3019 RMK A01 T01111092  RH  023%=      5-min Rain = 0
KBI1 121906Z 18015KT 11/M09 A3019 RMK A01 T01111093  RH  023%=      5-min Rain = 0
KBI1 121907Z 17014KT 11/M09 A3019 RMK A01 T01111092  RH  023%=      5-min Rain = 0
KBI1 121908Z 19015KT 11/M09 A3019 RMK A01 T01121092  RH  023%=      5-min Rain = 0
KBI1 121909Z 19013KT 11/M09 A3019 RMK A01 T01111091  RH  023%=      5-min Rain = 0
KBI1 121910Z 18014KT 11/M09 A3019 RMK A01 T01131090  RH  023%=      5-min Rain = 0
KBI1 121911Z 18013G18KT 11/M09 A3019 RMK A01 T01121091  RH  023%=      5-min Rain = 0
KBI1 121912Z 18013KT 11/M09 A3019 RMK A01 T01121091  RH  023%=      5-min Rain = 0
KBI1 121913Z 19011KT 11/M09 A3019 RMK A01 T01141087  RH  023%=      5-min Rain = 0
KBI1 121914Z 20014KT 12/M09 A3018 RMK A01 T01191086  RH  023%=      5-min Rain = 0
KBI1 121915Z 20012KT 11/M09 A3019 RMK A01 T01131093  RH  023%=      5-min Rain = 0
KBI1 121916Z 18013G18KT 11/M09 A3018 RMK A01 T01101092  RH  023%=      5-min Rain = 0
KBI1 121917Z 18012KT 11/M09 A3018 RMK A01 T01101090  RH  024%=      5-min Rain = 0
KBI1 121918Z 18012KT 11/M09 A3018 RMK A01 T01131088  RH  024%=      5-min Rain = 0
KBI1 121919Z 18012KT 12/M09 A3018 RMK A01 T01151087  RH  023%=      5-min Rain = 0
KBI1 121920Z 18010KT 12/M09 A3018 RMK A01 T01161089  RH  023%=      5-min Rain = 0
KBI1 121921Z 17010KT 12/M09 A3018 RMK A01 T01151088  RH  023%=      5-min Rain = 0
KBI1 121922Z 18011KT 12/M09 A3018 RMK A01 T01161087  RH  023%=      5-min Rain = 0
KBI1 121923Z 20014G19KT 11/M09 A3018 RMK A01 T01141089  RH  023%=      5-min Rain = 0
KBI1 121924Z 20014KT 11/M09 A3018 RMK A01 T01111089  RH  024%=      5-min Rain = 0
KBI1 121925Z 18012KT 11/M09 A3018 RMK A01 T01111087  RH  024%=      5-min Rain = 0
KBI1 121926Z 17010KT 11/M09 A3018 RMK A01 T01121088  RH  024%=      5-min Rain = 0
KBI1 121927Z 18011KT 11/M09 A3018 RMK A01 T01121086  RH  024%=      5-min Rain = 0
KBI1 121928Z 18009KT 11/M09 A3018 RMK A01 T01141086  RH  024%=      5-min Rain = 0
KBI1 121929Z 19011KT 12/M08 A3018 RMK A01 T01181082  RH  024%=      5-min Rain = 0
KBI1 121930Z 19009G16KT 12/M09 A3018 RMK A01 T01171086  RH  023%=      5-min Rain = 0
KBI1 121931Z 18014KT 12/M09 A3018 RMK A01 T01151086  RH  024%=      5-min Rain = 0
KBI1 121932Z 18013KT 11/M09 A3018 RMK A01 T01121089  RH  024%=      5-min Rain = 0
KBI1 121933Z 19012KT 11/M09 A3017 RMK A01 T01111088  RH  024%=      5-min Rain = 0
KBI1 121934Z 18014KT 11/M09 A3017 RMK A01 T01121087  RH  024%=      5-min Rain = 0
KBI1 121935Z 20014KT 11/M09 A3017 RMK A01 T01131087  RH  024%=      5-min Rain = 0
KBI1 121936Z 20011KT 11/M09 A3017 RMK A01 T01111088  RH  024%=      5-min Rain = 0
KBI1 121937Z 18010KT 11/M09 A3017 RMK A01 T01121087  RH  024%=      5-min Rain = 0
KBI1 121938Z 17010KT 11/M09 A3017 RMK A01 T01141085  RH  024%=      5-min Rain = 0
KBI1 121939Z 18014KT 12/M08 A3017 RMK A01 T01181084  RH  024%=      5-min Rain = 0
KBI1 121940Z 18011KT 12/M09 A3017 RMK A01 T01181086  RH  023%=      5-min Rain = 0
KBI1 121941Z 18013KT 12/M09 A3017 RMK A01 T01161087  RH  023%=      5-min Rain = 0
KBI1 121942Z 19013KT 12/M09 A3016 RMK A01 T01171085  RH  023%=      5-min Rain = 0
KBI1 121943Z 18010KT 12/M08 A3016 RMK A01 T01191084  RH  023%=      5-min Rain = 0
KBI1 121944Z 19011KT 12/M08 A3016 RMK A01 T01221081  RH  023%=      5-min Rain = 0
KBI1 121945Z 20013KT 12/M08 A3016 RMK A01 T01241083  RH  023%=      5-min Rain = 0
KBI1 121946Z 19010KT 12/M08 A3016 RMK A01 T01231082  RH  023%=      5-min Rain = 0
KBI1 121947Z 19011KT 12/M08 A3016 RMK A01 T01241083  RH  023%=      5-min Rain = 0
KBI1 121948Z 19009KT 12/M09 A3016 RMK A01 T01201085  RH  023%=      5-min Rain = 0
KBI1 121949Z 17013KT 12/M08 A3016 RMK A01 T01211082  RH  023%=      5-min Rain = 0
KBI1 121950Z 16012KT 12/M09 A3016 RMK A01 T01211085  RH  023%=      5-min Rain = 0
KBI1 121951Z 17012KT 12/M09 A3016 RMK A01 T01201085  RH  023%=      5-min Rain = 0
KBI1 121952Z 18010G15KT 12/M08 A3016 RMK A01 T01201084  RH  023%=      5-min Rain = 0
KBI1 121953Z 18010KT 12/M08 A3016 RMK A01 T01211084  RH  023%=      5-min Rain = 0
KBI1 121954Z 19010KT 12/M08 A3016 RMK A01 T01221082  RH  023%=      5-min Rain = 0
KBI1 121955Z 19012KT 13/M08 A3016 RMK A01 T01251082  RH  023%=      5-min Rain = 0
KBI1 121956Z 18009KT 12/M09 A3016 RMK A01 T01231085  RH  023%=      5-min Rain = 0
KBI1 121957Z 20010KT 12/M09 A3016 RMK A01 T01201086  RH  023%=      5-min Rain = 0
KBI1 121958Z 19011KT 12/M08 A3016 RMK A01 T01201084  RH  023%=      5-min Rain = 0
KBI1 121959Z 18013KT 12/M08 A3016 RMK A01 T01241081  RH  023%=      5-min Rain = 0
KBI1 122000Z 18010KT 13/M08 A3016 RMK A01 T01271081  RH  023%=      5-min Rain = 0
KBI1 122001Z 19012KT 13/M08 A3016 RMK A01 T01261083  RH  022%=      5-min Rain = 0
KBI1 122002Z 19011KT 13/M08 A3016 RMK A01 T01251083  RH  023%=      5-min Rain = 0
KBI1 122003Z 18012KT 12/M08 A3016 RMK A01 T01231084  RH  023%=      5-min Rain = 0
KBI1 122004Z 17011KT 12/M08 A3015 RMK A01 T01231083  RH  023%=      5-min Rain = 0
KBI1 122005Z 19013KT 13/M08 A3015 RMK A01 T01261079  RH  023%=      5-min Rain = 0
KBI1 122006Z 17010KT 13/M08 A3015 RMK A01 T01291078  RH  023%=      5-min Rain = 0
KBI1 122007Z 17010KT 13/M08 A3015 RMK A01 T01301080  RH  022%=      5-min Rain = 0
KBI1 122008Z 17009KT 13/M08 A3015 RMK A01 T01281081  RH  022%=      5-min Rain = 0
KBI1 122009Z 20011KT 13/M08 A3015 RMK A01 T01281080  RH  023%=      5-min Rain = 0
KBI1 122010Z 20013KT 13/M08 A3015 RMK A01 T01281080  RH  023%=      5-min Rain = 0
KBI1 122011Z 20013KT 13/M08 A3015 RMK A01 T01261080  RH  023%=      5-min Rain = 0
KBI1 122012Z 21013G18KT 13/M08 A3015 RMK A01 T01251079  RH  023%=      5-min Rain = 0
KBI1 122013Z 20015KT 13/M08 A3015 RMK A01 T01251080  RH  023%=      5-min Rain = 0
KBI1 122014Z 21015KT 12/M08 A3015 RMK A01 T01241082  RH  023%=      5-min Rain = 0
KBI1 122015Z 20011KT 12/M08 A3015 RMK A01 T01221083  RH  023%=      5-min Rain = 0
KBI1 122016Z 20009KT 12/M08 A3015 RMK A01 T01231080  RH  023%=      5-min Rain = 0
KBI1 122017Z 19011KT 13/M08 A3015 RMK A01 T01251080  RH  023%=      5-min Rain = 0
KBI1 122018Z 18012KT 13/M08 A3015 RMK A01 T01261080  RH  023%=      5-min Rain = 0
KBI1 122019Z 18011G16KT 13/M08 A3015 RMK A01 T01251081  RH  023%=      5-min Rain = 0
KBI1 122020Z 18013KT 13/M08 A3014 RMK A01 T01251080  RH  023%=      5-min Rain = 0
KBI1 122021Z 20011KT 13/M08 A3015 RMK A01 T01251079  RH  023%=      5-min Rain = 0
KBI1 122022Z 18008KT 13/M08 A3014 RMK A01 T01251079  RH  023%=      5-min Rain = 0
KBI1 122023Z 17010G16KT 13/M08 A3014 RMK A01 T01281076  RH  023%=      5-min Rain = 0
KBI1 122024Z 17011KT 13/M08 A3014 RMK A01 T01301077  RH  023%=      5-min Rain = 0
KBI1 122025Z 16010KT 13/M08 A3014 RMK A01 T01291079  RH  023%=      5-min Rain = 0
KBI1 122026Z 16010KT 13/M08 A3014 RMK A01 T01281081  RH  023%=      5-min Rain = 0
KBI1 122027Z 15009KT 13/M08 A3014 RMK A01 T01261083  RH  023%=      5-min Rain = 0
KBI1 122028Z 15010KT 12/M08 A3014 RMK A01 T01241082  RH  023%=      5-min Rain = 0
KBI1 122029Z 17009KT 13/M08 A3014 RMK A01 T01251081  RH  023%=      5-min Rain = 0
KBI1 122030Z 19011G16KT 13/M08 A3014 RMK A01 T01281077  RH  023%=      5-min Rain = 0
KBI1 122031Z 20012KT 13/M08 A3014 RMK A01 T01291078  RH  023%=      5-min Rain = 0
KBI1 122032Z 20010KT 13/M08 A3014 RMK A01 T01271079  RH  023%=      5-min Rain = 0
KBI1 122033Z 19010KT 13/M08 A3014 RMK A01 T01281076  RH  023%=      5-min Rain = 0
KBI1 122034Z 17011KT 13/M08 A3014 RMK A01 T01301076  RH  023%=      5-min Rain = 0
KBI1 122035Z 18012KT 13/M08 A3014 RMK A01 T01311076  RH  023%=      5-min Rain = 0
KBI1 122036Z 18008KT 13/M08 A3014 RMK A01 T01291079  RH  023%=      5-min Rain = 0
KBI1 122037Z 18010KT 13/M08 A3014 RMK A01 T01291078  RH  023%=      5-min Rain = 0
KBI1 122038Z 20008KT 13/M07 A3014 RMK A01 T01321074  RH  023%=      5-min Rain = 0
KBI1 122039Z 18011KT 14/M07 A3014 RMK A01 T01351074  RH  023%=      5-min Rain = 0
KBI1 122040Z 21011KT 13/M08 A3014 RMK A01 T01341075  RH  023%=      5-min Rain = 0
KBI1 122041Z 20011KT 13/M08 A3014 RMK A01 T01321076  RH  023%=      5-min Rain = 0
KBI1 122042Z 19009KT 13/M08 A3014 RMK A01 T01301076  RH  023%=      5-min Rain = 0
KBI1 122043Z 20009KT 13/M08 A3014 RMK A01 T01301075  RH  023%=      5-min Rain = 0
KBI1 122044Z 20011KT 13/M07 A3014 RMK A01 T01321074  RH  023%=      5-min Rain = 0
KBI1 122045Z 19012KT 13/M08 A3014 RMK A01 T01341076  RH  023%=      5-min Rain = 0
KBI1 122046Z 18011KT 13/M08 A3014 RMK A01 T01331076  RH  023%=      5-min Rain = 0
KBI1 122047Z 19010KT 13/M08 A3014 RMK A01 T01331076  RH  023%=      5-min Rain = 0
KBI1 122048Z 17010KT 13/M08 A3014 RMK A01 T01301079  RH  023%=      5-min Rain = 0
KBI1 122049Z 17009KT 13/M08 A3014 RMK A01 T01291078  RH  023%=      5-min Rain = 0
KBI1 122050Z 18011KT 13/M08 A3014 RMK A01 T01301078  RH  023%=      5-min Rain = 0
KBI1 122051Z 18009KT 13/M08 A3014 RMK A01 T01321077  RH  023%=      5-min Rain = 0
KBI1 122052Z 17012KT 14/M08 A3014 RMK A01 T01361077  RH  022%=      5-min Rain = 0
KBI1 122053Z 17011KT 14/M08 A3014 RMK A01 T01361078  RH  022%=      5-min Rain = 0
KBI1 122054Z 18008KT 14/M08 A3014 RMK A01 T01351077  RH  022%=      5-min Rain = 0
KBI1 122055Z 17010KT 14/M08 A3014 RMK A01 T01371076  RH  022%=      5-min Rain = 0
KBI1 122056Z 17010KT 14/M08 A3014 RMK A01 T01371078  RH  022%=      5-min Rain = 0
KBI1 122057Z 18009KT 14/M08 A3014 RMK A01 T01361077  RH  022%=      5-min Rain = 0
KBI1 122058Z 18012KT 14/M08 A3014 RMK A01 T01381075  RH  022%=      5-min Rain = 0
KBI1 122059Z 18011KT 14/M08 A3014 RMK A01 T01371077  RH  022%=      5-min Rain = 0
KBI1 122100Z 17012KT 14/M08 A3014 RMK A01 T01351077  RH  022%=      5-min Rain = 0
KBI1 122101Z 17010KT 13/M08 A3014 RMK A01 T01341076  RH  022%=      5-min Rain = 0
KBI1 122102Z 16010KT 13/M08 A3013 RMK A01 T01341076  RH  022%=      5-min Rain = 0
KBI1 122103Z 16008KT 13/M08 A3013 RMK A01 T01341076  RH  022%=      5-min Rain = 0
KBI1 122104Z 18012KT 13/M08 A3013 RMK A01 T01331075  RH  023%=      5-min Rain = 0
KBI1 122105Z 20012KT 13/M07 A3013 RMK A01 T01341074  RH  023%=      5-min Rain = 0
KBI1 122106Z 19010KT 14/M07 A3014 RMK A01 T01371072  RH  023%=      5-min Rain = 0
KBI1 122107Z 19009KT 14/M07 A3014 RMK A01 T01381074  RH  022%=      5-min Rain = 0
KBI1 122108Z 17007KT 14/M07 A3014 RMK A01 T01371073  RH  023%=      5-min Rain = 0
KBI1 122109Z 19009KT 14/M07 A3014 RMK A01 T01371073  RH  022%=      5-min Rain = 0
KBI1 122110Z 20011KT 14/M07 A3014 RMK A01 T01371074  RH  022%=      5-min Rain = 0
KBI1 122111Z 20011KT 13/M08 A3014 RMK A01 T01341076  RH  023%=      5-min Rain = 0
KBI1 122112Z 20009KT 13/M08 A3014 RMK A01 T01341075  RH  023%=      5-min Rain = 0
KBI1 122113Z 19008KT 13/M07 A3014 RMK A01 T01341074  RH  023%=      5-min Rain = 0
KBI1 122114Z 18009KT 14/M08 A3013 RMK A01 T01351075  RH  023%=      5-min Rain = 0
KBI1 122115Z 18010KT 13/M08 A3013 RMK A01 T01341075  RH  023%=      5-min Rain = 0
KBI1 122116Z 20007KT 13/M08 A3013 RMK A01 T01331075  RH  023%=      5-min Rain = 0
KBI1 122117Z 19012KT 13/M08 A3013 RMK A01 T01331075  RH  023%=      5-min Rain = 0
KBI1 122118Z 18012KT 13/M08 A3013 RMK A01 T01331075  RH  023%=      5-min Rain = 0
KBI1 122119Z 18010KT 13/M07 A3013 RMK A01 T01341074  RH  023%=      5-min Rain = 0
KBI1 122120Z 19009KT 14/M07 A3013 RMK A01 T01351074  RH  023%=      5-min Rain = 0
KBI1 122121Z 20011KT 14/M07 A3013 RMK A01 T01351074  RH  023%=      5-min Rain = 0
KBI1 122122Z 18011KT 13/M07 A3013 RMK A01 T01341074  RH  023%=      5-min Rain = 0
KBI1 122123Z 19009KT 13/M07 A3013 RMK A01 T01341074  RH  023%=      5-min Rain = 0
KBI1 122124Z 19009KT 13/M07 A3013 RMK A01 T01341073  RH  023%=      5-min Rain = 0
KBI1 122125Z 19012KT 14/M07 A3013 RMK A01 T01351072  RH  023%=      5-min Rain = 0
KBI1 122126Z 20011KT 13/M07 A3013 RMK A01 T01341073  RH  023%=      5-min Rain = 0
KBI1 122127Z 19009KT 13/M07 A3013 RMK A01 T01321073  RH  023%=      5-min Rain = 0
KBI1 122128Z 19008KT 13/M07 A3013 RMK A01 T01341071  RH  023%=      5-min Rain = 0
KBI1 122129Z 18009KT 13/M07 A3013 RMK A01 T01341072  RH  023%=      5-min Rain = 0
KBI1 122130Z 17008KT 13/M07 A3013 RMK A01 T01341072  RH  023%=      5-min Rain = 0
KBI1 122131Z 16009KT 14/M07 A3013 RMK A01 T01351072  RH  023%=      5-min Rain = 0
KBI1 122132Z 17007KT 13/M07 A3013 RMK A01 T01341073  RH  023%=      5-min Rain = 0
KBI1 122133Z 16009G15KT 13/M07 A3013 RMK A01 T01341072  RH  023%=      5-min Rain = 0
KBI1 122134Z 19012KT 14/M07 A3013 RMK A01 T01351072  RH  023%=      5-min Rain = 0
KBI1 122135Z 21010KT 14/M07 A3013 RMK A01 T01351071  RH  023%=      5-min Rain = 0
KBI1 122136Z 20009KT 13/M07 A3013 RMK A01 T01341072  RH  023%=      5-min Rain = 0
KBI1 122137Z 19010KT 13/M07 A3013 RMK A01 T01341070  RH  024%=      5-min Rain = 0
KBI1 122138Z 19009KT 14/M07 A3013 RMK A01 T01351071  RH  023%=      5-min Rain = 0
KBI1 122139Z 17009KT 14/M07 A3013 RMK A01 T01361071  RH  023%=      5-min Rain = 0
KBI1 122140Z 17006KT 14/M07 A3013 RMK A01 T01361071  RH  023%=      5-min Rain = 0
KBI1 122141Z 16008KT 14/M07 A3013 RMK A01 T01361071  RH  023%=      5-min Rain = 0
KBI1 122142Z 18009KT 14/M07 A3013 RMK A01 T01371071  RH  023%=      5-min Rain = 0
KBI1 122143Z 21010KT 14/M07 A3013 RMK A01 T01381070  RH  023%=      5-min Rain = 0
KBI1 122144Z 21009KT 14/M07 A3013 RMK A01 T01371071  RH  023%=      5-min Rain = 0
KBI1 122145Z 20010KT 14/M07 A3013 RMK A01 T01361070  RH  023%=      5-min Rain = 0
KBI1 122146Z 19009KT 14/M07 A3013 RMK A01 T01361069  RH  023%=      5-min Rain = 0
KBI1 122147Z 19007KT 14/M07 A3013 RMK A01 T01351070  RH  023%=      5-min Rain = 0
KBI1 122148Z 19008KT 14/M07 A3013 RMK A01 T01351068  RH  024%=      5-min Rain = 0
KBI1 122149Z 20006KT 14/M07 A3013 RMK A01 T01351070  RH  023%=      5-min Rain = 0
KBI1 122150Z 21009KT 13/M07 A3013 RMK A01 T01341071  RH  023%=      5-min Rain = 0
KBI1 122151Z 21010KT 13/M07 A3013 RMK A01 T01341071  RH  023%=      5-min Rain = 0
KBI1 122152Z 19011KT 13/M07 A3013 RMK A01 T01341071  RH  023%=      5-min Rain = 0
KBI1 122153Z 19007KT 13/M07 A3013 RMK A01 T01341070  RH  024%=      5-min Rain = 0
KBI1 122154Z 19010KT 14/M07 A3013 RMK A01 T01351070  RH  023%=      5-min Rain = 0
KBI1 122155Z 19009KT 14/M07 A3013 RMK A01 T01351072  RH  023%=      5-min Rain = 0
KBI1 122156Z 20008KT 13/M07 A3013 RMK A01 T01331073  RH  023%=      5-min Rain = 0
KBI1 122157Z 18006KT 13/M07 A3013 RMK A01 T01331072  RH  023%=      5-min Rain = 0
KBI1 122158Z 19006KT 14/M07 A3013 RMK A01 T01351070  RH  023%=      5-min Rain = 0
KBI1 122159Z 20007KT 14/M07 A3013 RMK A01 T01361070  RH  023%=      5-min Rain = 0
KBI1 122200Z 19009KT 14/M07 A3013 RMK A01 T01371070  RH  023%=      5-min Rain = 0
KBI1 122201Z 19009KT 14/M07 A3013 RMK A01 T01361071  RH  023%=      5-min Rain = 0
KBI1 122202Z 19007KT 14/M07 A3013 RMK A01 T01351071  RH  023%=      5-min Rain = 0
KBI1 122203Z 18009KT 14/M07 A3013 RMK A01 T01351070  RH  023%=      5-min Rain = 0
KBI1 122204Z 20006KT 14/M07 A3014 RMK A01 T01351071  RH  023%=      5-min Rain = 0
KBI1 122205Z 20005KT 14/M07 A3014 RMK A01 T01351072  RH  023%=      5-min Rain = 0
KBI1 122206Z 19006KT 13/M07 A3014 RMK A01 T01341072  RH  023%=      5-min Rain = 0
KBI1 122207Z 20007G12KT 13/M07 A3014 RMK A01 T01341071  RH  023%=      5-min Rain = 0
KBI1 122208Z 21010KT 13/M07 A3013 RMK A01 T01341071  RH  023%=      5-min Rain = 0
KBI1 122209Z 19010KT 13/M07 A3014 RMK A01 T01341072  RH  023%=      5-min Rain = 0
KBI1 122210Z 19009KT 13/M07 A3014 RMK A01 T01321073  RH  023%=      5-min Rain = 0
KBI1 122211Z 18007KT 13/M07 A3014 RMK A01 T01321072  RH  023%=      5-min Rain = 0
KBI1 122212Z 20006KT 13/M07 A3014 RMK A01 T01321072  RH  024%=      5-min Rain = 0
KBI1 122213Z 20006KT 13/M07 A3014 RMK A01 T01321072  RH  023%=      5-min Rain = 0
KBI1 122214Z 19005KT 13/M07 A3014 RMK A01 T01331071  RH  023%=      5-min Rain = 0
KBI1 122215Z 19004KT 13/M07 A3014 RMK A01 T01341072  RH  023%=      5-min Rain = 0
KBI1 122216Z 19005KT 13/M07 A3014 RMK A01 T01341071  RH  023%=      5-min Rain = 0
KBI1 122217Z 19005KT 14/M07 A3014 RMK A01 T01361070  RH  023%=      5-min Rain = 0
KBI1 122218Z 20010KT 14/M07 A3014 RMK A01 T01381069  RH  023%=      5-min Rain = 0
KBI1 122219Z 20009KT 14/M07 A3014 RMK A01 T01381070  RH  023%=      5-min Rain = 0
KBI1 122220Z 20009KT 14/M07 A3014 RMK A01 T01371071  RH  023%=      5-min Rain = 0
KBI1 122221Z 19007KT 14/M07 A3014 RMK A01 T01361072  RH  023%=      5-min Rain = 0
KBI1 122222Z 20008KT 14/M07 A3014 RMK A01 T01351073  RH  023%=      5-min Rain = 0
KBI1 122223Z 19007KT 13/M07 A3014 RMK A01 T01341072  RH  023%=      5-min Rain = 0
KBI1 122224Z 19007KT 13/M07 A3014 RMK A01 T01341072  RH  023%=      5-min Rain = 0
KBI1 122225Z 18006KT 14/M07 A3014 RMK A01 T01351071  RH  023%=      5-min Rain = 0
KBI1 122226Z 16006KT 13/M07 A3014 RMK A01 T01341072  RH  023%=      5-min Rain = 0
KBI1 122227Z 17004KT 13/M07 A3014 RMK A01 T01341071  RH  023%=      5-min Rain = 0
KBI1 122228Z 19004KT 14/M07 A3014 RMK A01 T01351070  RH  023%=      5-min Rain = 0
KBI1 122229Z 20007KT 14/M07 A3014 RMK A01 T01371069  RH  023%=      5-min Rain = 0
KBI1 122230Z 17006KT 14/M07 A3014 RMK A01 T01381070  RH  023%=      5-min Rain = 0
KBI1 122231Z 18006KT 14/M07 A3014 RMK A01 T01381069  RH  023%=      5-min Rain = 0
KBI1 122232Z 17005KT 14/M07 A3014 RMK A01 T01381070  RH  023%=      5-min Rain = 0
KBI1 122233Z 16006KT 14/M07 A3014 RMK A01 T01381069  RH  023%=      5-min Rain = 0
KBI1 122234Z 18008KT 14/M07 A3014 RMK A01 T01391069  RH  023%=      5-min Rain = 0
KBI1 122235Z 20007KT 14/M07 A3014 RMK A01 T01371071  RH  023%=      5-min Rain = 0
KBI1 122236Z 19008KT 14/M07 A3014 RMK A01 T01351073  RH  023%=      5-min Rain = 0
KBI1 122237Z 17007KT 14/M07 A3014 RMK A01 T01351071  RH  023%=      5-min Rain = 0
KBI1 122238Z 19008KT 14/M07 A3014 RMK A01 T01351070  RH  023%=      5-min Rain = 0
KBI1 122239Z 19007KT 14/M07 A3014 RMK A01 T01351071  RH  023%=      5-min Rain = 0
KBI1 122240Z 18006KT 13/M07 A3014 RMK A01 T01341072  RH  023%=      5-min Rain = 0
KBI1 122241Z 19006KT 13/M07 A3014 RMK A01 T01341071  RH  024%=      5-min Rain = 0
KBI1 122242Z 20007KT 13/M07 A3014 RMK A01 T01341070  RH  024%=      5-min Rain = 0
KBI1 122243Z 18006KT 13/M07 A3014 RMK A01 T01341070  RH  023%=      5-min Rain = 0
KBI1 122244Z 18008KT 14/M07 A3013 RMK A01 T01351070  RH  023%=      5-min Rain = 0
KBI1 122245Z 19010KT 14/M07 A3013 RMK A01 T01351070  RH  023%=      5-min Rain = 0
KBI1 122246Z 18009KT 13/M07 A3013 RMK A01 T01341071  RH  023%=      5-min Rain = 0
KBI1 122247Z 18008KT 13/M07 A3013 RMK A01 T01341070  RH  024%=      5-min Rain = 0
KBI1 122248Z 21008KT 13/M07 A3014 RMK A01 T01331070  RH  024%=      5-min Rain = 0
KBI1 122249Z 20009KT 13/M07 A3014 RMK A01 T01331071  RH  024%=      5-min Rain = 0
KBI1 122250Z 20008KT 13/M07 A3014 RMK A01 T01331071  RH  024%=      5-min Rain = 0
KBI1 122251Z 19008KT 13/M07 A3014 RMK A01 T01331071  RH  024%=      5-min Rain = 0
KBI1 122252Z 20006KT 13/M07 A3014 RMK A01 T01321071  RH  024%=      5-min Rain = 0
KBI1 122253Z 21006KT 13/M07 A3014 RMK A01 T01321070  RH  024%=      5-min Rain = 0
KBI1 122254Z 17006KT 13/M07 A3014 RMK A01 T01321071  RH  024%=      5-min Rain = 0
KBI1 122255Z 17005KT 13/M07 A3014 RMK A01 T01321070  RH  024%=      5-min Rain = 0
KBI1 122256Z 16008KT 13/M07 A3014 RMK A01 T01321070  RH  024%=      5-min Rain = 0
KBI1 122257Z 17008KT 13/M07 A3014 RMK A01 T01331070  RH  024%=      5-min Rain = 0
KBI1 122258Z 17007KT 13/M07 A3014 RMK A01 T01321070  RH  024%=      5-min Rain = 0
KBI1 122259Z 16005KT 13/M07 A3014 RMK A01 T01321070  RH  024%=      5-min Rain = 0
KBI1 122300Z 17005KT 13/M07 A3014 RMK A01 T01311071  RH  024%=      5-min Rain = 0
KBI1 122301Z 16006KT 13/M07 A3014 RMK A01 T01311071  RH  024%=      5-min Rain = 0
KBI1 122302Z 17006KT 13/M07 A3014 RMK A01 T01311070  RH  024%=      5-min Rain = 0
KBI1 122303Z 17006KT 13/M07 A3014 RMK A01 T01321070  RH  024%=      5-min Rain = 0
KBI1 122304Z 17006KT 13/M07 A3014 RMK A01 T01321069  RH  024%=      5-min Rain = 0
KBI1 122305Z 18006KT 13/M07 A3014 RMK A01 T01331068  RH  024%=      5-min Rain = 0
KBI1 122306Z 19008KT 13/M07 A3014 RMK A01 T01331069  RH  024%=      5-min Rain = 0
KBI1 122307Z 18009KT 13/M07 A3014 RMK A01 T01321069  RH  024%=      5-min Rain = 0
KBI1 122308Z 18007KT 13/M07 A3014 RMK A01 T01311069  RH  024%=      5-min Rain = 0
KBI1 122309Z 18006KT 13/M07 A3014 RMK A01 T01311069  RH  024%=      5-min Rain = 0
KBI1 122310Z 18007KT 13/M07 A3014 RMK A01 T01301069  RH  024%=      5-min Rain = 0
KBI1 122311Z 17007KT 13/M07 A3014 RMK A01 T01301069  RH  024%=      5-min Rain = 0
KBI1 122312Z 18007KT 13/M07 A3014 RMK A01 T01301069  RH  024%=      5-min Rain = 0
KBI1 122313Z 18008KT 13/M07 A3014 RMK A01 T01291069  RH  024%=      5-min Rain = 0
KBI1 122314Z 18008KT 13/M07 A3014 RMK A01 T01291070  RH  024%=      5-min Rain = 0
KBI1 122315Z 18007KT 13/M07 A3014 RMK A01 T01291069  RH  025%=      5-min Rain = 0
KBI1 122316Z 16006KT 13/M07 A3014 RMK A01 T01291068  RH  025%=      5-min Rain = 0
KBI1 122317Z 16007KT 13/M07 A3014 RMK A01 T01291068  RH  025%=      5-min Rain = 0
KBI1 122318Z 16006KT 13/M07 A3014 RMK A01 T01291068  RH  025%=      5-min Rain = 0
KBI1 122319Z 16005KT 13/M07 A3014 RMK A01 T01291068  RH  025%=      5-min Rain = 0
KBI1 122320Z 16006KT 13/M07 A3014 RMK A01 T01291068  RH  025%=      5-min Rain = 0
KBI1 122321Z 16005KT 13/M07 A3014 RMK A01 T01291068  RH  025%=      5-min Rain = 0
KBI1 122322Z 17006KT 13/M07 A3014 RMK A01 T01291068  RH  025%=      5-min Rain = 0
KBI1 122323Z 16006KT 13/M07 A3014 RMK A01 T01291068  RH  025%=      5-min Rain = 0
KBI1 122324Z 18005KT 13/M07 A3014 RMK A01 T01281068  RH  025%=      5-min Rain = 0
KBI1 122325Z 18006KT 13/M07 A3014 RMK A01 T01281068  RH  025%=      5-min Rain = 0
KBI1 122326Z 17007KT 13/M07 A3014 RMK A01 T01271068  RH  025%=      5-min Rain = 0
KBI1 122327Z 16006KT 13/M07 A3014 RMK A01 T01271068  RH  025%=      5-min Rain = 0
KBI1 122328Z 16006KT 13/M07 A3014 RMK A01 T01261068  RH  025%=      5-min Rain = 0
KBI1 122329Z 16007KT 13/M07 A3014 RMK A01 T01261068  RH  025%=      5-min Rain = 0
KBI1 122330Z 17006KT 13/M07 A3014 RMK A01 T01261068  RH  025%=      5-min Rain = 0
KBI1 122331Z 17005KT 13/M07 A3014 RMK A01 T01251069  RH  025%=      5-min Rain = 0
KBI1 122332Z 17005KT 13/M07 A3014 RMK A01 T01251068  RH  025%=      5-min Rain = 0
KBI1 122333Z 17004KT 13/M07 A3014 RMK A01 T01251068  RH  025%=      5-min Rain = 0
KBI1 122334Z 17004KT 12/M07 A3014 RMK A01 T01241068  RH  026%=      5-min Rain = 0
KBI1 122335Z 17006KT 12/M07 A3014 RMK A01 T01241068  RH  026%=      5-min Rain = 0
KBI1 122336Z 16005KT 12/M07 A3014 RMK A01 T01241067  RH  026%=      5-min Rain = 0
KBI1 122337Z 17005KT 12/M07 A3014 RMK A01 T01241067  RH  026%=      5-min Rain = 0
KBI1 122338Z 17005KT 12/M07 A3014 RMK A01 T01231068  RH  026%=      5-min Rain = 0
KBI1 122339Z 17005KT 12/M07 A3015 RMK A01 T01221067  RH  026%=      5-min Rain = 0
KBI1 122340Z 17005KT 12/M07 A3015 RMK A01 T01221068  RH  026%=      5-min Rain = 0
KBI1 122341Z 17004KT 12/M07 A3015 RMK A01 T01221067  RH  026%=      5-min Rain = 0
KBI1 122342Z 17005KT 12/M07 A3015 RMK A01 T01211068  RH  026%=      5-min Rain = 0
KBI1 122343Z 16004KT 12/M07 A3015 RMK A01 T01201067  RH  026%=      5-min Rain = 0
KBI1 122344Z 16005KT 12/M07 A3015 RMK A01 T01201068  RH  026%=      5-min Rain = 0
KBI1 122345Z 16004KT 12/M07 A3015 RMK A01 T01191068  RH  026%=      5-min Rain = 0
KBI1 122346Z 16003KT 12/M07 A3015 RMK A01 T01191068  RH  026%=      5-min Rain = 0
KBI1 122347Z 16003KT 12/M07 A3015 RMK A01 T01191068  RH  027%=      5-min Rain = 0
KBI1 122348Z 15003KT 12/M07 A3015 RMK A01 T01171068  RH  027%=      5-min Rain = 0
KBI1 122349Z 16002KT 12/M07 A3015 RMK A01 T01171067  RH  027%=      5-min Rain = 0
KBI1 122350Z 15003KT 12/M07 A3015 RMK A01 T01171067  RH  027%=      5-min Rain = 0
KBI1 122351Z 16003KT 12/M07 A3015 RMK A01 T01161067  RH  027%=      5-min Rain = 0
KBI1 122352Z 16004KT 12/M07 A3015 RMK A01 T01161067  RH  027%=      5-min Rain = 0
KBI1 122353Z 16004KT 12/M07 A3015 RMK A01 T01161067  RH  027%=      5-min Rain = 0
KBI1 122354Z 16004KT 12/M07 A3015 RMK A01 T01151066  RH  027%=      5-min Rain = 0
KBI1 122355Z 16005KT 12/M07 A3015 RMK A01 T01151067  RH  027%=      5-min Rain = 0
KBI1 122356Z 16004KT 11/M07 A3015 RMK A01 T01141066  RH  028%=      5-min Rain = 0
KBI1 122357Z 15005KT 11/M07 A3015 RMK A01 T01131067  RH  028%=      5-min Rain = 0
KBI1 122358Z 15004KT 11/M07 A3015 RMK A01 T01131067  RH  028%=      5-min Rain = 0
KBI1 122359Z 15004KT 11/M07 A3015 RMK A01 T01131066  RH  028%=      5-min Rain = 0
KBI1 130000Z 15004KT 11/M07 A3015 RMK A01 T01131066  RH  028%=      5-min Rain = 0
KBI1 130001Z 15004KT 11/M07 A3015 RMK A01 T01121067  RH  028%=      5-min Rain = 0
KBI1 130002Z 15004KT 11/M07 A3015 RMK A01 T01111067  RH  028%=      5-min Rain = 0
KBI1 130003Z 15003KT 11/M07 A3015 RMK A01 T01121067  RH  028%=      5-min Rain = 0
KBI1 130004Z 15004KT 11/M07 A3015 RMK A01 T01111067  RH  028%=      5-min Rain = 0
KBI1 130005Z 14004KT 11/M07 A3015 RMK A01 T01111067  RH  028%=      5-min Rain = 0
KBI1 130006Z 14003KT 11/M07 A3015 RMK A01 T01101067  RH  028%=      5-min Rain = 0
KBI1 130007Z 14003KT 11/M07 A3015 RMK A01 T01091067  RH  029%=      5-min Rain = 0
KBI1 130008Z 14004KT 11/M07 A3015 RMK A01 T01081067  RH  029%=      5-min Rain = 0
KBI1 130009Z 14003KT 11/M07 A3015 RMK A01 T01081066  RH  029%=      5-min Rain = 0
KBI1 130010Z 14004KT 11/M07 A3015 RMK A01 T01081066  RH  029%=      5-min Rain = 0
KBI1 130011Z 14004KT 11/M07 A3015 RMK A01 T01071066  RH  029%=      5-min Rain = 0
KBI1 130012Z 15004KT 11/M07 A3015 RMK A01 T01071066  RH  029%=      5-min Rain = 0
KBI1 130013Z 15004KT 11/M07 A3015 RMK A01 T01061066  RH  029%=      5-min Rain = 0
KBI1 130014Z 15004KT 11/M07 A3015 RMK A01 T01051066  RH  029%=      5-min Rain = 0
KBI1 130015Z 15004KT 10/M07 A3015 RMK A01 T01041066  RH  029%=      5-min Rain = 0
KBI1 130016Z 15005KT 10/M07 A3015 RMK A01 T01041066  RH  030%=      5-min Rain = 0
KBI1 130017Z 15004KT 10/M07 A3015 RMK A01 T01041066  RH  030%=      5-min Rain = 0
KBI1 130018Z 15004KT 10/M07 A3015 RMK A01 T01041066  RH  030%=      5-min Rain = 0
KBI1 130019Z 15004KT 10/M07 A3015 RMK A01 T01031066  RH  030%=      5-min Rain = 0
KBI1 130020Z 15004KT 10/M07 A3015 RMK A01 T01031066  RH  030%=      5-min Rain = 0
KBI1 130021Z 15004KT 10/M07 A3015 RMK A01 T01021066  RH  030%=      5-min Rain = 0
KBI1 130022Z 15004KT 10/M07 A3015 RMK A01 T01031066  RH  030%=      5-min Rain = 0
KBI1 130023Z 15004KT 10/M07 A3015 RMK A01 T01021067  RH  030%=      5-min Rain = 0
KBI1 130024Z 16004KT 10/M07 A3015 RMK A01 T01021066  RH  030%=      5-min Rain = 0
KBI1 130025Z 16004KT 10/M07 A3015 RMK A01 T01021067  RH  030%=      5-min Rain = 0
KBI1 130026Z 16005KT 10/M07 A3015 RMK A01 T01021066  RH  030%=      5-min Rain = 0
KBI1 130027Z 16004KT 10/M07 A3015 RMK A01 T01011066  RH  030%=      5-min Rain = 0
KBI1 130028Z 16005KT 10/M07 A3015 RMK A01 T01011066  RH  030%=      5-min Rain = 0
KBI1 130029Z 16005KT 10/M07 A3015 RMK A01 T01011066  RH  030%=      5-min Rain = 0
KBI1 130030Z 15005KT 10/M07 A3015 RMK A01 T01001066  RH  030%=      5-min Rain = 0
KBI1 130031Z 16005KT 10/M07 A3015 RMK A01 T00991066  RH  031%=      5-min Rain = 0
KBI1 130032Z 15005KT 10/M07 A3015 RMK A01 T00991066  RH  031%=      5-min Rain = 0
KBI1 130033Z 15004KT 10/M07 A3015 RMK A01 T00981066  RH  031%=      5-min Rain = 0
KBI1 130034Z 15005KT 10/M07 A3016 RMK A01 T00981066  RH  031%=      5-min Rain = 0
KBI1 130035Z 15004KT 10/M07 A3016 RMK A01 T00971066  RH  031%=      5-min Rain = 0
KBI1 130036Z 16004KT 10/M07 A3016 RMK A01 T00971066  RH  031%=      5-min Rain = 0
KBI1 130037Z 15004KT 10/M07 A3016 RMK A01 T00971066  RH  031%=      5-min Rain = 0
KBI1 130038Z 14003KT 10/M07 A3016 RMK A01 T00971066  RH  031%=      5-min Rain = 0
KBI1 130039Z 13002KT 10/M07 A3016 RMK A01 T00971065  RH  031%=      5-min Rain = 0
KBI1 130040Z 14003KT 10/M07 A3016 RMK A01 T00971065  RH  031%=      5-min Rain = 0
KBI1 130041Z 14003KT 10/M07 A3016 RMK A01 T00971066  RH  031%=      5-min Rain = 0
KBI1 130042Z 14003KT 10/M07 A3017 RMK A01 T00971065  RH  031%=      5-min Rain = 0
KBI1 130043Z 14003KT 10/M07 A3017 RMK A01 T00961066  RH  031%=      5-min Rain = 0
KBI1 130044Z 13004KT 10/M07 A3017 RMK A01 T00951066  RH  031%=      5-min Rain = 0
KBI1 130045Z 14004KT 10/M07 A3017 RMK A01 T00951066  RH  031%=      5-min Rain = 0
KBI1 130046Z 14004KT 10/M07 A3017 RMK A01 T00951066  RH  032%=      5-min Rain = 0
KBI1 130047Z 13004KT 09/M07 A3017 RMK A01 T00941066  RH  032%=      5-min Rain = 0
KBI1 130048Z 13004KT 09/M07 A3017 RMK A01 T00941066  RH  032%=      5-min Rain = 0
KBI1 130049Z 14004KT 09/M07 A3017 RMK A01 T00941066  RH  032%=      5-min Rain = 0
KBI1 130050Z 14003KT 09/M07 A3017 RMK A01 T00931066  RH  032%=      5-min Rain = 0
KBI1 130051Z 13004KT 09/M07 A3017 RMK A01 T00921066  RH  032%=      5-min Rain = 0
KBI1 130052Z 13004KT 09/M07 A3017 RMK A01 T00921066  RH  032%=      5-min Rain = 0
KBI1 130053Z 13004KT 09/M07 A3017 RMK A01 T00921066  RH  032%=      5-min Rain = 0
KBI1 130054Z 13004KT 09/M07 A3017 RMK A01 T00921066  RH  032%=      5-min Rain = 0
KBI1 130055Z 13004KT 09/M07 A3017 RMK A01 T00921066  RH  032%=      5-min Rain = 0
KBI1 130056Z 13003KT 09/M07 A3017 RMK A01 T00911066  RH  032%=      5-min Rain = 0
KBI1 130057Z 11003KT 09/M07 A3017 RMK A01 T00911066  RH  032%=      5-min Rain = 0
KBI1 130058Z 12004KT 09/M07 A3018 RMK A01 T00911065  RH  033%=      5-min Rain = 0
KBI1 130059Z 12004KT 09/M07 A3018 RMK A01 T00911065  RH  033%=      5-min Rain = 0
KBI1 130100Z 12004KT 09/M07 A3018 RMK A01 T00901066  RH  033%=      5-min Rain = 0
KBI1 130101Z 12005KT 09/M07 A3018 RMK A01 T00891066  RH  033%=      5-min Rain = 0
KBI1 130102Z 12004KT 09/M07 A3018 RMK A01 T00881066  RH  033%=      5-min Rain = 0
KBI1 130103Z 12004KT 09/M07 A3018 RMK A01 T00861066  RH  033%=      5-min Rain = 0
KBI1 130104Z 12004KT 09/M07 A3018 RMK A01 T00851066  RH  034%=      5-min Rain = 0
KBI1 130105Z 12004KT 09/M07 A3018 RMK A01 T00851066  RH  034%=      5-min Rain = 0
KBI1 130106Z 12005KT 09/M07 A3018 RMK A01 T00851065  RH  034%=      5-min Rain = 0
KBI1 130107Z 12005KT 08/M07 A3018 RMK A01 T00841065  RH  034%=      5-min Rain = 0
KBI1 130108Z 12004KT 08/M07 A3018 RMK A01 T00841066  RH  034%=      5-min Rain = 0
KBI1 130109Z 12004KT 08/M07 A3018 RMK A01 T00841066  RH  034%=      5-min Rain = 0
KBI1 130110Z 13004KT 08/M07 A3018 RMK A01 T00831066  RH  034%=      5-min Rain = 0
KBI1 130111Z 13004KT 08/M07 A3018 RMK A01 T00821066  RH  034%=      5-min Rain = 0
KBI1 130112Z 13004KT 08/M07 A3018 RMK A01 T00821066  RH  034%=      5-min Rain = 0
KBI1 130113Z 13004KT 08/M07 A3018 RMK A01 T00821065  RH  035%=      5-min Rain = 0
KBI1 130114Z 12003KT 08/M07 A3018 RMK A01 T00811066  RH  035%=      5-min Rain = 0
KBI1 130115Z 13004KT 08/M07 A3018 RMK A01 T00821065  RH  035%=      5-min Rain = 0
KBI1 130116Z 13003KT 08/M07 A3018 RMK A01 T00821065  RH  035%=      5-min Rain = 0
KBI1 130117Z 12003KT 08/M07 A3018 RMK A01 T00821066  RH  035%=      5-min Rain = 0
KBI1 130118Z 12003KT 08/M07 A3019 RMK A01 T00821066  RH  035%=      5-min Rain = 0
KBI1 130119Z 12004KT 08/M07 A3019 RMK A01 T00821065  RH  035%=      5-min Rain = 0
KBI1 130120Z 12004KT 08/M07 A3019 RMK A01 T00821065  RH  035%=      5-min Rain = 0
KBI1 130121Z 12003KT 08/M07 A3019 RMK A01 T00811065  RH  035%=      5-min Rain = 0
KBI1 130122Z 12003KT 08/M07 A3019 RMK A01 T00811066  RH  035%=      5-min Rain = 0
KBI1 130123Z 12004KT 08/M07 A3019 RMK A01 T00811065  RH  035%=      5-min Rain = 0
KBI1 130124Z 12003KT 08/M07 A3019 RMK A01 T00811065  RH  035%=      5-min Rain = 0
KBI1 130125Z 12003KT 08/M07 A3019 RMK A01 T00801065  RH  035%=      5-min Rain = 0
KBI1 130126Z 13003KT 08/M07 A3019 RMK A01 T00801065  RH  035%=      5-min Rain = 0
KBI1 130127Z 12003KT 08/M07 A3019 RMK A01 T00801065  RH  035%=      5-min Rain = 0
KBI1 130128Z 13003KT 08/M07 A3019 RMK A01 T00801065  RH  035%=      5-min Rain = 0
KBI1 130129Z 12003KT 08/M07 A3019 RMK A01 T00801065  RH  035%=      5-min Rain = 0
KBI1 130130Z 12003KT 08/M07 A3019 RMK A01 T00801065  RH  035%=      5-min Rain = 0
KBI1 130131Z 13003KT 08/M07 A3019 RMK A01 T00801065  RH  035%=      5-min Rain = 0
KBI1 130132Z 12003KT 08/M07 A3019 RMK A01 T00791065  RH  035%=      5-min Rain = 0
KBI1 130133Z 12004KT 08/M07 A302 RMK A01 T00801065  RH  035%=      5-min Rain = 0
KBI1 130134Z 12004KT 08/M07 A302 RMK A01 T00791065  RH  035%=      5-min Rain = 0
KBI1 130135Z 12004KT 08/M07 A302 RMK A01 T00791065  RH  035%=      5-min Rain = 0
KBI1 130136Z 11005KT 08/M07 A302 RMK A01 T00801065  RH  035%=      5-min Rain = 0
KBI1 130137Z 12005KT 08/M07 A302 RMK A01 T00791065  RH  035%=      5-min Rain = 0
KBI1 130138Z 11005KT 08/M06 A302 RMK A01 T00781064  RH  036%=      5-min Rain = 0
KBI1 130139Z 11005KT 08/M06 A302 RMK A01 T00781064  RH  036%=      5-min Rain = 0
KBI1 130140Z 11004KT 08/M06 A302 RMK A01 T00781064  RH  036%=      5-min Rain = 0
KBI1 130141Z 10004KT 08/M06 A302 RMK A01 T00781064  RH  036%=      5-min Rain = 0
KBI1 130142Z 10003KT 08/M06 A302 RMK A01 T00771064  RH  036%=      5-min Rain = 0
KBI1 130143Z 11004KT 08/M06 A302 RMK A01 T00771064  RH  036%=      5-min Rain = 0
KBI1 130144Z 12004KT 08/M06 A302 RMK A01 T00761064  RH  036%=      5-min Rain = 0
KBI1 130145Z 12004KT 08/M06 A302 RMK A01 T00761064  RH  036%=      5-min Rain = 0
KBI1 130146Z 12004KT 07/M07 A302 RMK A01 T00741065  RH  037%=      5-min Rain = 0
KBI1 130147Z 12005KT 07/M06 A302 RMK A01 T00741064  RH  037%=      5-min Rain = 0
KBI1 130148Z 12004KT 07/M07 A302 RMK A01 T00741065  RH  037%=      5-min Rain = 0
KBI1 130149Z 12004KT 07/M07 A302 RMK A01 T00731065  RH  037%=      5-min Rain = 0
KBI1 130150Z 12003KT 07/M07 A302 RMK A01 T00731065  RH  037%=      5-min Rain = 0
KBI1 130151Z 12004KT 07/M07 A302 RMK A01 T00721065  RH  037%=      5-min Rain = 0
KBI1 130152Z 12004KT 07/M07 A302 RMK A01 T00721065  RH  037%=      5-min Rain = 0
KBI1 130153Z 12004KT 07/M06 A302 RMK A01 T00721064  RH  037%=      5-min Rain = 0
KBI1 130154Z 12004KT 07/M07 A302 RMK A01 T00721065  RH  037%=      5-min Rain = 0
KBI1 130155Z 12004KT 07/M07 A302 RMK A01 T00711065  RH  037%=      5-min Rain = 0
KBI1 130156Z 12004KT 07/M07 A302 RMK A01 T00711065  RH  037%=      5-min Rain = 0
KBI1 130157Z 11004KT 07/M07 A302 RMK A01 T00711065  RH  037%=      5-min Rain = 0
KBI1 130158Z 11004KT 07/M07 A302 RMK A01 T00711065  RH  037%=      5-min Rain = 0
KBI1 130159Z 12004KT 07/M07 A302 RMK A01 T00711065  RH  037%=      5-min Rain = 0
KBI1 130200Z 12004KT 07/M07 A302 RMK A01 T00711065  RH  037%=      5-min Rain = 0
KBI1 130201Z 12005KT 07/M07 A302 RMK A01 T00711065  RH  037%=      5-min Rain = 0
KBI1 130202Z 12004KT 07/M07 A302 RMK A01 T00711065  RH  037%=      5-min Rain = 0
KBI1 130203Z 11004KT 07/M07 A302 RMK A01 T00701065  RH  037%=      5-min Rain = 0
KBI1 130204Z 11004KT 07/M07 A302 RMK A01 T00701065  RH  038%=      5-min Rain = 0
KBI1 130205Z 12004KT 07/M07 A302 RMK A01 T00701065  RH  038%=      5-min Rain = 0
KBI1 130206Z 12005KT 07/M07 A302 RMK A01 T00691065  RH  038%=      5-min Rain = 0
KBI1 130207Z 11005KT 07/M07 A302 RMK A01 T00691065  RH  038%=      5-min Rain = 0
KBI1 130208Z 11004KT 07/M07 A302 RMK A01 T00691065  RH  038%=      5-min Rain = 0
KBI1 130209Z 11004KT 07/M07 A302 RMK A01 T00691065  RH  038%=      5-min Rain = 0
KBI1 130210Z 11004KT 07/M07 A302 RMK A01 T00691065  RH  038%=      5-min Rain = 0
KBI1 130211Z 11004KT 07/M07 A302 RMK A01 T00691065  RH  038%=      5-min Rain = 0
KBI1 130212Z 11004KT 07/M07 A302 RMK A01 T00691065  RH  038%=      5-min Rain = 0
KBI1 130213Z 11004KT 07/M07 A3021 RMK A01 T00681065  RH  038%=      5-min Rain = 0
KBI1 130214Z 11004KT 07/M07 A3021 RMK A01 T00681066  RH  038%=      5-min Rain = 0
KBI1 130215Z 11004KT 07/M07 A3021 RMK A01 T00681065  RH  038%=      5-min Rain = 0
KBI1 130216Z 11004KT 07/M07 A3021 RMK A01 T00671065  RH  038%=      5-min Rain = 0
KBI1 130217Z 11004KT 07/M07 A3021 RMK A01 T00681065  RH  038%=      5-min Rain = 0
KBI1 130218Z 11004KT 07/M07 A3021 RMK A01 T00681065  RH  038%=      5-min Rain = 0
KBI1 130219Z 11004KT 07/M07 A3021 RMK A01 T00681065  RH  038%=      5-min Rain = 0
KBI1 130220Z 11004KT 07/M07 A3021 RMK A01 T00681065  RH  038%=      5-min Rain = 0
KBI1 130221Z 12004KT 07/M07 A3021 RMK A01 T00681065  RH  038%=      5-min Rain = 0
KBI1 130222Z 11004KT 07/M07 A3021 RMK A01 T00681065  RH  038%=      5-min Rain = 0
KBI1 130223Z 11004KT 07/M07 A3021 RMK A01 T00681065  RH  038%=      5-min Rain = 0
KBI1 130224Z 11004KT 07/M07 A3021 RMK A01 T00681065  RH  038%=      5-min Rain = 0
KBI1 130225Z 11004KT 07/M07 A3021 RMK A01 T00681065  RH  038%=      5-min Rain = 0
KBI1 130226Z 11004KT 07/M07 A3021 RMK A01 T00681065  RH  038%=      5-min Rain = 0
KBI1 130227Z 10004KT 07/M07 A3021 RMK A01 T00681065  RH  038%=      5-min Rain = 0
KBI1 130228Z 10004KT 07/M06 A3022 RMK A01 T00681064  RH  038%=      5-min Rain = 0
KBI1 130229Z 11004KT 07/M06 A3022 RMK A01 T00671064  RH  038%=      5-min Rain = 0
KBI1 130230Z 11004KT 07/M07 A3022 RMK A01 T00671065  RH  039%=      5-min Rain = 0
KBI1 130231Z 10004KT 07/M07 A3022 RMK A01 T00661065  RH  039%=      5-min Rain = 0
KBI1 130232Z 09005KT 07/M06 A3022 RMK A01 T00661064  RH  039%=      5-min Rain = 0
KBI1 130233Z 09005KT 07/M06 A3022 RMK A01 T00661064  RH  039%=      5-min Rain = 0
KBI1 130234Z 10004KT 07/M06 A3022 RMK A01 T00661063  RH  039%=      5-min Rain = 0
KBI1 130235Z 10004KT 07/M06 A3022 RMK A01 T00651064  RH  039%=      5-min Rain = 0
KBI1 130236Z 10005KT 06/M06 A3022 RMK A01 T00641064  RH  039%=      5-min Rain = 0
KBI1 130237Z 10005KT 06/M06 A3022 RMK A01 T00641064  RH  040%=      5-min Rain = 0
KBI1 130238Z 11005KT 06/M06 A3022 RMK A01 T00631064  RH  040%=      5-min Rain = 0
KBI1 130239Z 11005KT 06/M06 A3022 RMK A01 T00631064  RH  040%=      5-min Rain = 0
KBI1 130240Z 11006KT 06/M06 A3022 RMK A01 T00621064  RH  040%=      5-min Rain = 0
KBI1 130241Z 11005KT 06/M07 A3022 RMK A01 T00611065  RH  040%=      5-min Rain = 0
KBI1 130242Z 11005KT 06/M07 A3022 RMK A01 T00611065  RH  040%=      5-min Rain = 0
KBI1 130243Z 10005KT 06/M07 A3022 RMK A01 T00611065  RH  040%=      5-min Rain = 0
KBI1 130244Z 11005KT 06/M07 A3022 RMK A01 T00601065  RH  040%=      5-min Rain = 0
KBI1 130245Z 11005KT 06/M07 A3022 RMK A01 T00601066  RH  040%=      5-min Rain = 0
KBI1 130246Z 11004KT 06/M07 A3022 RMK A01 T00591066  RH  040%=      5-min Rain = 0
KBI1 130247Z 11005KT 06/M07 A3022 RMK A01 T00591066  RH  040%=      5-min Rain = 0
KBI1 130248Z 11005KT 06/M07 A3022 RMK A01 T00581066  RH  040%=      5-min Rain = 0
KBI1 130249Z 11005KT 06/M07 A3022 RMK A01 T00581066  RH  041%=      5-min Rain = 0
KBI1 130250Z 11005KT 06/M07 A3022 RMK A01 T00581066  RH  041%=      5-min Rain = 0
KBI1 130251Z 11005KT 06/M07 A3022 RMK A01 T00581065  RH  041%=      5-min Rain = 0
KBI1 130252Z 11005KT 06/M07 A3022 RMK A01 T00571066  RH  041%=      5-min Rain = 0
KBI1 130253Z 10005KT 06/M07 A3023 RMK A01 T00571066  RH  041%=      5-min Rain = 0
KBI1 130254Z 11005KT 06/M07 A3023 RMK A01 T00571066  RH  041%=      5-min Rain = 0
KBI1 130255Z 11005KT 06/M07 A3023 RMK A01 T00571066  RH  041%=      5-min Rain = 0
KBI1 130256Z 11005KT 06/M07 A3023 RMK A01 T00571066  RH  041%=      5-min Rain = 0
KBI1 130257Z 11005KT 06/M07 A3023 RMK A01 T00571066  RH  041%=      5-min Rain = 0
KBI1 130258Z 11005KT 06/M07 A3023 RMK A01 T00571066  RH  041%=      5-min Rain = 0
KBI1 130259Z 10004KT 06/M07 A3023 RMK A01 T00561066  RH  041%=      5-min Rain = 0
KBI1 130300Z 10005KT 06/M07 A3023 RMK A01 T00561066  RH  041%=      5-min Rain = 0
KBI1 130301Z 10004KT 06/M07 A3023 RMK A01 T00551066  RH  041%=      5-min Rain = 0
KBI1 130302Z 10004KT 06/M07 A3023 RMK A01 T00561065  RH  041%=      5-min Rain = 0
KBI1 130303Z 11005KT 06/M07 A3023 RMK A01 T00561065  RH  041%=      5-min Rain = 0
KBI1 130304Z 11005KT 06/M07 A3023 RMK A01 T00561066  RH  041%=      5-min Rain = 0
KBI1 130305Z 11005KT 06/M07 A3023 RMK A01 T00551066  RH  041%=      5-min Rain = 0
KBI1 130306Z 11005KT 06/M07 A3023 RMK A01 T00561066  RH  041%=      5-min Rain = 0
KBI1 130307Z 11005KT 06/M07 A3023 RMK A01 T00561066  RH  041%=      5-min Rain = 0
KBI1 130308Z 10005KT 06/M07 A3023 RMK A01 T00561066  RH  041%=      5-min Rain = 0
KBI1 130309Z 11005KT 06/M07 A3023 RMK A01 T00561066  RH  041%=      5-min Rain = 0
KBI1 130310Z 11005KT 06/M07 A3023 RMK A01 T00561066  RH  041%=      5-min Rain = 0
KBI1 130311Z 12005KT 06/M07 A3023 RMK A01 T00561066  RH  041%=      5-min Rain = 0
KBI1 130312Z 12006KT 06/M07 A3023 RMK A01 T00551066  RH  041%=      5-min Rain = 0
KBI1 130313Z 12006KT 06/M07 A3023 RMK A01 T00551066  RH  041%=      5-min Rain = 0
KBI1 130314Z 13005KT 05/M07 A3023 RMK A01 T00541066  RH  042%=      5-min Rain = 0
KBI1 130315Z 12006KT 05/M07 A3023 RMK A01 T00541066  RH  042%=      5-min Rain = 0
KBI1 130316Z 12005KT 05/M07 A3024 RMK A01 T00531066  RH  042%=      5-min Rain = 0
KBI1 130317Z 11005KT 05/M07 A3024 RMK A01 T00531066  RH  042%=      5-min Rain = 0
KBI1 130318Z 11005KT 05/M07 A3024 RMK A01 T00531066  RH  042%=      5-min Rain = 0
KBI1 130319Z 11006KT 05/M07 A3024 RMK A01 T00541066  RH  042%=      5-min Rain = 0
KBI1 130320Z 11005KT 05/M07 A3024 RMK A01 T00541067  RH  042%=      5-min Rain = 0
KBI1 130321Z 11005KT 05/M07 A3024 RMK A01 T00541066  RH  042%=      5-min Rain = 0
KBI1 130322Z 11004KT 05/M07 A3024 RMK A01 T00541066  RH  041%=      5-min Rain = 0
KBI1 130323Z 12005KT 05/M07 A3024 RMK A01 T00541066  RH  041%=      5-min Rain = 0
KBI1 130324Z 12005KT 05/M07 A3024 RMK A01 T00541066  RH  042%=      5-min Rain = 0
KBI1 130325Z 12006KT 05/M07 A3024 RMK A01 T00541066  RH  041%=      5-min Rain = 0
KBI1 130326Z 13005KT 05/M07 A3024 RMK A01 T00541066  RH  041%=      5-min Rain = 0
KBI1 130327Z 13006KT 05/M07 A3024 RMK A01 T00541066  RH  042%=      5-min Rain = 0
KBI1 130328Z 14006KT 05/M07 A3024 RMK A01 T00541066  RH  042%=      5-min Rain = 0
KBI1 130329Z 13005KT 05/M07 A3024 RMK A01 T00541066  RH  042%=      5-min Rain = 0
KBI1 130330Z 13005KT 05/M07 A3024 RMK A01 T00541066  RH  042%=      5-min Rain = 0
KBI1 130331Z 13005KT 05/M07 A3024 RMK A01 T00541066  RH  042%=      5-min Rain = 0
KBI1 130332Z 13005KT 06/M07 A3024 RMK A01 T00551066  RH  041%=      5-min Rain = 0
KBI1 130333Z 13005KT 06/M07 A3024 RMK A01 T00551066  RH  041%=      5-min Rain = 0
KBI1 130334Z 13005KT 06/M07 A3024 RMK A01 T00551066  RH  041%=      5-min Rain = 0
KBI1 130335Z 13005KT 06/M07 A3024 RMK A01 T00551066  RH  041%=      5-min Rain = 0
KBI1 130336Z 13005KT 06/M07 A3024 RMK A01 T00551066  RH  041%=      5-min Rain = 0
KBI1 130337Z 13004KT 06/M07 A3024 RMK A01 T00551065  RH  041%=      5-min Rain = 0
KBI1 130338Z 12005KT 06/M07 A3024 RMK A01 T00551065  RH  042%=      5-min Rain = 0
KBI1 130339Z 13005KT 05/M07 A3024 RMK A01 T00541066  RH  042%=      5-min Rain = 0
KBI1 130340Z 13004KT 06/M07 A3024 RMK A01 T00551065  RH  042%=      5-min Rain = 0
KBI1 130341Z 13004KT 06/M07 A3024 RMK A01 T00551065  RH  042%=      5-min Rain = 0
KBI1 130342Z 13004KT 06/M07 A3024 RMK A01 T00551066  RH  041%=      5-min Rain = 0
KBI1 130343Z 14003KT 06/M07 A3024 RMK A01 T00551065  RH  041%=      5-min Rain = 0
KBI1 130344Z 14003KT 06/M07 A3024 RMK A01 T00551065  RH  042%=      5-min Rain = 0
KBI1 130345Z 14004KT 05/M07 A3025 RMK A01 T00541065  RH  042%=      5-min Rain = 0
KBI1 130346Z 13004KT 05/M07 A3025 RMK A01 T00541065  RH  042%=      5-min Rain = 0
KBI1 130347Z 13004KT 05/M07 A3025 RMK A01 T00541065  RH  042%=      5-min Rain = 0
KBI1 130348Z 13004KT 05/M07 A3025 RMK A01 T00531065  RH  042%=      5-min Rain = 0
KBI1 130349Z 13004KT 05/M07 A3025 RMK A01 T00531065  RH  042%=      5-min Rain = 0
KBI1 130350Z 13003KT 05/M07 A3025 RMK A01 T00531065  RH  042%=      5-min Rain = 0
KBI1 130351Z 13004KT 05/M07 A3025 RMK A01 T00531065  RH  042%=      5-min Rain = 0
KBI1 130352Z 14003KT 05/M07 A3025 RMK A01 T00521065  RH  043%=      5-min Rain = 0
KBI1 130353Z 13004KT 05/M07 A3025 RMK A01 T00521065  RH  043%=      5-min Rain = 0
KBI1 130354Z 13004KT 05/M06 A3025 RMK A01 T00521064  RH  043%=      5-min Rain = 0
KBI1 130355Z 13004KT 05/M06 A3025 RMK A01 T00521064  RH  043%=      5-min Rain = 0
KBI1 130356Z 14003KT 05/M06 A3025 RMK A01 T00521064  RH  043%=      5-min Rain = 0
KBI1 130357Z 14004KT 05/M06 A3025 RMK A01 T00511064  RH  043%=      5-min Rain = 0
KBI1 130358Z 15004KT 05/M06 A3025 RMK A01 T00511064  RH  043%=      5-min Rain = 0
KBI1 130359Z 15004KT 05/M06 A3025 RMK A01 T00511064  RH  043%=      5-min Rain = 0
KBI1 130400Z 15004KT 05/M06 A3025 RMK A01 T00511064  RH  043%=      5-min Rain = 0
KBI1 130401Z 15004KT 05/M06 A3025 RMK A01 T00521063  RH  043%=      5-min Rain = 0
KBI1 130402Z 14003KT 05/M06 A3025 RMK A01 T00511063  RH  043%=      5-min Rain = 0
KBI1 130403Z 14003KT 05/M06 A3025 RMK A01 T00521063  RH  043%=      5-min Rain = 0
KBI1 130404Z 15002KT 05/M06 A3026 RMK A01 T00521063  RH  043%=      5-min Rain = 0
KBI1 130405Z 14003KT 05/M06 A3026 RMK A01 T00511063  RH  043%=      5-min Rain = 0
KBI1 130406Z 14004KT 05/M06 A3026 RMK A01 T00511063  RH  043%=      5-min Rain = 0
KBI1 130407Z 14003KT 05/M06 A3026 RMK A01 T00511063  RH  044%=      5-min Rain = 0
KBI1 130408Z 15003KT 05/M06 A3026 RMK A01 T00511063  RH  044%=      5-min Rain = 0
KBI1 130409Z 14003KT 05/M06 A3026 RMK A01 T00501064  RH  044%=      5-min Rain = 0
KBI1 130410Z 13002KT 05/M06 A3026 RMK A01 T00491064  RH  044%=      5-min Rain = 0
KBI1 130411Z 14002KT 05/M06 A3026 RMK A01 T00481064  RH  044%=      5-min Rain = 0
KBI1 130412Z 13002KT 05/M06 A3027 RMK A01 T00471064  RH  044%=      5-min Rain = 0
KBI1 130413Z 13002KT 05/M07 A3027 RMK A01 T00451065  RH  045%=      5-min Rain = 0
KBI1 130414Z 12002KT 05/M07 A3027 RMK A01 T00451065  RH  045%=      5-min Rain = 0
KBI1 130415Z 12001KT 04/M07 A3027 RMK A01 T00441065  RH  045%=      5-min Rain = 0
KBI1 130416Z 12001KT 04/M07 A3027 RMK A01 T00431065  RH  045%=      5-min Rain = 0
KBI1 130417Z 12002KT 04/M07 A3027 RMK A01 T00421065  RH  046%=      5-min Rain = 0
KBI1 130418Z 11003KT 04/M06 A3027 RMK A01 T00421064  RH  046%=      5-min Rain = 0
KBI1 130419Z 11003KT 04/M06 A3027 RMK A01 T00411064  RH  046%=      5-min Rain = 0
KBI1 130420Z 10003KT 04/M06 A3027 RMK A01 T00431064  RH  046%=      5-min Rain = 0
KBI1 130421Z 08004KT 04/M06 A3027 RMK A01 T00441063  RH  046%=      5-min Rain = 0
KBI1 130422Z 08005KT 05/M06 A3027 RMK A01 T00451063  RH  045%=      5-min Rain = 0
KBI1 130423Z 07005KT 05/M06 A3027 RMK A01 T00451063  RH  045%=      5-min Rain = 0
KBI1 130424Z 08006KT 05/M06 A3027 RMK A01 T00451063  RH  046%=      5-min Rain = 0
KBI1 130425Z 09005KT 04/M06 A3027 RMK A01 T00441062  RH  046%=      5-min Rain = 0
KBI1 130426Z 09006KT 04/M06 A3028 RMK A01 T00441062  RH  046%=      5-min Rain = 0
KBI1 130427Z 08007KT 04/M06 A3028 RMK A01 T00441062  RH  046%=      5-min Rain = 0
KBI1 130428Z 08006KT 05/M06 A3028 RMK A01 T00451062  RH  046%=      5-min Rain = 0
KBI1 130429Z 08006KT 05/M06 A3028 RMK A01 T00451062  RH  046%=      5-min Rain = 0
KBI1 130430Z 08007KT 04/M06 A3028 RMK A01 T00441062  RH  046%=      5-min Rain = 0
KBI1 130431Z 08006KT 05/M06 A3028 RMK A01 T00451062  RH  046%=      5-min Rain = 0
KBI1 130432Z 08007KT 05/M06 A3028 RMK A01 T00451062  RH  046%=      5-min Rain = 0
KBI1 130433Z 08006KT 05/M06 A3028 RMK A01 T00451063  RH  045%=      5-min Rain = 0
KBI1 130434Z 08008KT 05/M06 A3028 RMK A01 T00451064  RH  045%=      5-min Rain = 0
KBI1 130435Z 08006KT 04/M06 A3028 RMK A01 T00441064  RH  045%=      5-min Rain = 0
KBI1 130436Z 07007KT 04/M07 A3029 RMK A01 T00441065  RH  045%=      5-min Rain = 0
KBI1 130437Z 08009KT 04/M07 A3029 RMK A01 T00431067  RH  045%=      5-min Rain = 0
KBI1 130438Z 08008KT 04/M07 A3029 RMK A01 T00411069  RH  045%=      5-min Rain = 0
KBI1 130439Z 07008KT 04/M07 A3029 RMK A01 T00401071  RH  044%=      5-min Rain = 0
KBI1 130440Z 08007KT 04/M07 A3029 RMK A01 T00391072  RH  044%=      5-min Rain = 0
KBI1 130441Z 08007KT 04/M07 A3029 RMK A01 T00381074  RH  044%=      5-min Rain = 0
KBI1 130442Z 08007KT 04/M08 A3029 RMK A01 T00371075  RH  044%=      5-min Rain = 0
KBI1 130443Z 08007KT 04/M08 A3029 RMK A01 T00361076  RH  044%=      5-min Rain = 0
KBI1 130444Z 08007KT 04/M08 A3029 RMK A01 T00361076  RH  044%=      5-min Rain = 0
KBI1 130445Z 08006KT 04/M08 A3029 RMK A01 T00351077  RH  044%=      5-min Rain = 0
KBI1 130446Z 08006KT 03/M08 A3029 RMK A01 T00341078  RH  044%=      5-min Rain = 0
KBI1 130447Z 08007KT 03/M08 A3029 RMK A01 T00341078  RH  044%=      5-min Rain = 0
KBI1 130448Z 09006KT 03/M08 A3029 RMK A01 T00341079  RH  044%=      5-min Rain = 0
KBI1 130449Z 09006KT 03/M08 A3029 RMK A01 T00341079  RH  044%=      5-min Rain = 0
KBI1 130450Z 09006KT 03/M08 A3029 RMK A01 T00331080  RH  044%=      5-min Rain = 0
KBI1 130451Z 09006KT 03/M08 A3029 RMK A01 T00321080  RH  044%=      5-min Rain = 0
KBI1 130452Z 08006KT 03/M08 A3029 RMK A01 T00321080  RH  044%=      5-min Rain = 0
KBI1 130453Z 08006KT 03/M08 A3029 RMK A01 T00311080  RH  044%=      5-min Rain = 0
KBI1 130454Z 08005KT 03/M08 A3029 RMK A01 T00311080  RH  044%=      5-min Rain = 0
KBI1 130455Z 07005KT 03/M08 A303 RMK A01 T00311080  RH  044%=      5-min Rain = 0
KBI1 130456Z 07005KT 03/M08 A303 RMK A01 T00311080  RH  044%=      5-min Rain = 0
KBI1 130457Z 07006KT 03/M08 A303 RMK A01 T00301080  RH  044%=      5-min Rain = 0
KBI1 130458Z 07007KT 03/M08 A303 RMK A01 T00291081  RH  044%=      5-min Rain = 0
KBI1 130459Z 07006KT 03/M08 A303 RMK A01 T00291082  RH  044%=      5-min Rain = 0
KBI1 130500Z 07006KT 03/M08 A303 RMK A01 T00281082  RH  044%=      5-min Rain = 0
KBI1 130501Z 08006KT 03/M08 A303 RMK A01 T00271082  RH  044%=      5-min Rain = 0
KBI1 130502Z 08007KT 03/M08 A303 RMK A01 T00271083  RH  044%=      5-min Rain = 0
KBI1 130503Z 08006KT 03/M08 A303 RMK A01 T00261084  RH  044%=      5-min Rain = 0
KBI1 130504Z 08007G13KT 03/M08 A303 RMK A01 T00261084  RH  044%=      5-min Rain = 0
KBI1 130505Z 07008KT 03/M09 A3031 RMK A01 T00261085  RH  044%=      5-min Rain = 0
KBI1 130506Z 08009KT 03/M09 A3031 RMK A01 T00261085  RH  044%=      5-min Rain = 0
KBI1 130507Z 08008KT 03/M09 A3031 RMK A01 T00271086  RH  043%=      5-min Rain = 0
KBI1 130508Z 08008KT 03/M09 A3031 RMK A01 T00271086  RH  043%=      5-min Rain = 0
KBI1 130509Z 08008KT 03/M09 A303 RMK A01 T00271086  RH  043%=      5-min Rain = 0
KBI1 130510Z 09007KT 03/M09 A303 RMK A01 T00271086  RH  043%=      5-min Rain = 0
KBI1 130511Z 09008KT 03/M09 A303 RMK A01 T00261087  RH  043%=      5-min Rain = 0
KBI1 130512Z 09007KT 03/M09 A303 RMK A01 T00261087  RH  043%=      5-min Rain = 0
KBI1 130513Z 10007KT 03/M09 A303 RMK A01 T00261088  RH  043%=      5-min Rain = 0
KBI1 130514Z 10005KT 03/M09 A303 RMK A01 T00261088  RH  043%=      5-min Rain = 0
KBI1 130515Z 11005KT 03/M09 A303 RMK A01 T00251087  RH  043%=      5-min Rain = 0
KBI1 130516Z 11008KT 03/M09 A303 RMK A01 T00251087  RH  043%=      5-min Rain = 0
KBI1 130517Z 10007KT 03/M09 A303 RMK A01 T00261087  RH  043%=      5-min Rain = 0
KBI1 130518Z 11006KT 03/M09 A303 RMK A01 T00261088  RH  043%=      5-min Rain = 0
KBI1 130519Z 10007KT 03/M09 A303 RMK A01 T00261088  RH  043%=      5-min Rain = 0
KBI1 130520Z 10008KT 03/M09 A303 RMK A01 T00261088  RH  043%=      5-min Rain = 0
KBI1 130521Z 10007KT 03/M09 A303 RMK A01 T00251088  RH  043%=      5-min Rain = 0
KBI1 130522Z 09006KT 02/M09 A303 RMK A01 T00241088  RH  043%=      5-min Rain = 0
KBI1 130523Z 09005KT 02/M09 A303 RMK A01 T00241088  RH  044%=      5-min Rain = 0
KBI1 130524Z 10007KT 02/M09 A303 RMK A01 T00231088  RH  044%=      5-min Rain = 0
KBI1 130525Z 11007KT 02/M09 A303 RMK A01 T00231088  RH  044%=      5-min Rain = 0
KBI1 130526Z 10007KT 02/M09 A303 RMK A01 T00231088  RH  044%=      5-min Rain = 0
KBI1 130527Z 11007KT 02/M09 A303 RMK A01 T00221088  RH  044%=      5-min Rain = 0
KBI1 130528Z 11007KT 02/M09 A303 RMK A01 T00221088  RH  044%=      5-min Rain = 0
KBI1 130529Z 10007KT 02/M09 A303 RMK A01 T00221088  RH  044%=      5-min Rain = 0
KBI1 130530Z 11008KT 02/M09 A303 RMK A01 T00221088  RH  044%=      5-min Rain = 0
KBI1 130531Z 10007KT 02/M09 A303 RMK A01 T00221089  RH  044%=      5-min Rain = 0
KBI1 130532Z 10006KT 02/M09 A303 RMK A01 T00231089  RH  043%=      5-min Rain = 0
KBI1 130533Z 09007KT 02/M09 A3031 RMK A01 T00241089  RH  043%=      5-min Rain = 0
KBI1 130534Z 09007KT 02/M09 A3031 RMK A01 T00241089  RH  043%=      5-min Rain = 0
KBI1 130535Z 09007KT 03/M09 A3031 RMK A01 T00251089  RH  043%=      5-min Rain = 0
KBI1 130536Z 09005KT 03/M09 A3031 RMK A01 T00251089  RH  043%=      5-min Rain = 0
KBI1 130537Z 09006KT 03/M09 A3031 RMK A01 T00251089  RH  043%=      5-min Rain = 0
KBI1 130538Z 08007KT 03/M09 A3031 RMK A01 T00251088  RH  043%=      5-min Rain = 0
KBI1 130539Z 08006KT 03/M09 A3031 RMK A01 T00261088  RH  043%=      5-min Rain = 0
KBI1 130540Z 08007KT 03/M09 A3031 RMK A01 T00261089  RH  042%=      5-min Rain = 0
KBI1 130541Z 08007KT 03/M09 A3031 RMK A01 T00271089  RH  042%=      5-min Rain = 0
KBI1 130542Z 09008KT 03/M09 A3031 RMK A01 T00271089  RH  042%=      5-min Rain = 0
KBI1 130543Z 09008KT 03/M09 A3031 RMK A01 T00271090  RH  042%=      5-min Rain = 0
KBI1 130544Z 08009KT 03/M09 A3032 RMK A01 T00281089  RH  042%=      5-min Rain = 0
KBI1 130545Z 09008KT 03/M09 A3031 RMK A01 T00291090  RH  041%=      5-min Rain = 0
KBI1 130546Z 10008KT 03/M09 A3031 RMK A01 T00291090  RH  041%=      5-min Rain = 0
KBI1 130547Z 09008KT 03/M09 A3031 RMK A01 T00281090  RH  042%=      5-min Rain = 0
KBI1 130548Z 10008KT 03/M09 A3031 RMK A01 T00281090  RH  042%=      5-min Rain = 0
KBI1 130549Z 10007KT 03/M09 A3031 RMK A01 T00281090  RH  042%=      5-min Rain = 0
KBI1 130550Z 10008KT 03/M09 A3031 RMK A01 T00281090  RH  042%=      5-min Rain = 0
KBI1 130551Z 10007KT 03/M09 A3031 RMK A01 T00271090  RH  042%=      5-min Rain = 0
KBI1 130552Z 10009KT 03/M09 A3031 RMK A01 T00271090  RH  042%=      5-min Rain = 0
KBI1 130553Z 10009KT 03/M09 A3031 RMK A01 T00261091  RH  042%=      5-min Rain = 0
KBI1 130554Z 10009G14KT 03/M09 A3031 RMK A01 T00261091  RH  042%=      5-min Rain = 0
KBI1 130555Z 10008KT 03/M09 A3031 RMK A01 T00261090  RH  042%=      5-min Rain = 0
KBI1 130556Z 09010KT 03/M09 A3031 RMK A01 T00261090  RH  042%=      5-min Rain = 0
KBI1 130557Z 09008KT 03/M09 A3031 RMK A01 T00261090  RH  042%=      5-min Rain = 0
KBI1 130558Z 09008KT 03/M09 A3031 RMK A01 T00261091  RH  042%=      5-min Rain = 0
KBI1 130559Z 09009KT 03/M09 A3031 RMK A01 T00261090  RH  042%=      5-min Rain = 0

Page generated in 0.0753 seconds.